<?xml version="1.0" encoding="UTF-8" standalone="no" ?>
<gpx xmlns="http://www.topografix.com/GPX/1/1" xmlns:xsi="http://www.w3.org/2001/XMLSchema-instance" xsi:schemaLocation="http://www.topografix.com/GPX/1/1 http://www.topografix.com/GPX/1/1/gpx.xsd" version="1.1" creator="VisuGPX - https://www.visugpx.com">
  <metadata>
    <name>VTT Tour du bois noir à Turriers</name>
    <desc><![CDATA[Petit circuit sympathique depuis Turriers avec montée en sous bois sur piste et descente en balcon avec vue sur l\'Oratoire et les Monges puis à travers prairies avec belle vue sur les Hautes Alpes]]></desc>
  </metadata>
  <trk>
    <name><![CDATA[N°16 Tour du Bois Noir]]></name>
    <trkseg>
      <trkpt lat="44.3983" lon="6.17143">
        <ele>985.008057</ele>
        <time>2011-08-04T07:56:35Z</time>
      </trkpt>
      <trkpt lat="44.39823" lon="6.17146">
        <ele>987.891846</ele>
        <time>2011-08-04T07:57:19Z</time>
      </trkpt>
      <trkpt lat="44.39823" lon="6.17146">
        <ele>991.737305</ele>
        <time>2011-08-04T07:57:22Z</time>
      </trkpt>
      <trkpt lat="44.39823" lon="6.17146">
        <ele>995.58252</ele>
        <time>2011-08-04T07:57:25Z</time>
      </trkpt>
      <trkpt lat="44.39823" lon="6.17146">
        <ele>998.947021</ele>
        <time>2011-08-04T07:57:28Z</time>
      </trkpt>
      <trkpt lat="44.39823" lon="6.17146">
        <ele>1002.311523</ele>
        <time>2011-08-04T07:57:31Z</time>
      </trkpt>
      <trkpt lat="44.39823" lon="6.17146">
        <ele>1005.676514</ele>
        <time>2011-08-04T07:57:35Z</time>
      </trkpt>
      <trkpt lat="44.39823" lon="6.17146">
        <ele>1009.041016</ele>
        <time>2011-08-04T07:57:39Z</time>
      </trkpt>
      <trkpt lat="44.39823" lon="6.17146">
        <ele>1012.405518</ele>
        <time>2011-08-04T07:57:44Z</time>
      </trkpt>
      <trkpt lat="44.39823" lon="6.17146">
        <ele>1015.770264</ele>
        <time>2011-08-04T07:57:50Z</time>
      </trkpt>
      <trkpt lat="44.39823" lon="6.17146">
        <ele>1018.654053</ele>
        <time>2011-08-04T07:57:57Z</time>
      </trkpt>
      <trkpt lat="44.39823" lon="6.17146">
        <ele>1022.018799</ele>
        <time>2011-08-04T07:58:07Z</time>
      </trkpt>
      <trkpt lat="44.39823" lon="6.17146">
        <ele>1024.902832</ele>
        <time>2011-08-04T07:58:21Z</time>
      </trkpt>
      <trkpt lat="44.39823" lon="6.17146">
        <ele>1027.786621</ele>
        <time>2011-08-04T07:58:47Z</time>
      </trkpt>
      <trkpt lat="44.39823" lon="6.17146">
        <ele>1029.228516</ele>
        <time>2011-08-04T07:59:14Z</time>
      </trkpt>
      <trkpt lat="44.39824" lon="6.1714">
        <ele>1029.228516</ele>
        <time>2011-08-04T07:59:36Z</time>
      </trkpt>
      <trkpt lat="44.39812" lon="6.17129">
        <ele>1028.748047</ele>
        <time>2011-08-04T07:59:48Z</time>
      </trkpt>
      <trkpt lat="44.39807" lon="6.17128">
        <ele>1028.748047</ele>
        <time>2011-08-04T07:59:51Z</time>
      </trkpt>
      <trkpt lat="44.39793" lon="6.17121">
        <ele>1026.825439</ele>
        <time>2011-08-04T08:00:07Z</time>
      </trkpt>
      <trkpt lat="44.39792" lon="6.17121">
        <ele>1027.306152</ele>
        <time>2011-08-04T08:00:27Z</time>
      </trkpt>
      <trkpt lat="44.39791" lon="6.17122">
        <ele>1027.306152</ele>
        <time>2011-08-04T08:00:32Z</time>
      </trkpt>
      <trkpt lat="44.39783" lon="6.17132">
        <ele>1026.344727</ele>
        <time>2011-08-04T08:00:36Z</time>
      </trkpt>
      <trkpt lat="44.39779" lon="6.17143">
        <ele>1026.825439</ele>
        <time>2011-08-04T08:00:38Z</time>
      </trkpt>
      <trkpt lat="44.3974" lon="6.17241">
        <ele>1022.018799</ele>
        <time>2011-08-04T08:00:51Z</time>
      </trkpt>
      <trkpt lat="44.39736" lon="6.1725">
        <ele>1022.018799</ele>
        <time>2011-08-04T08:00:52Z</time>
      </trkpt>
      <trkpt lat="44.39733" lon="6.17258">
        <ele>1020.096191</ele>
        <time>2011-08-04T08:00:53Z</time>
      </trkpt>
      <trkpt lat="44.39699" lon="6.17295">
        <ele>1017.692627</ele>
        <time>2011-08-04T08:00:59Z</time>
      </trkpt>
      <trkpt lat="44.39692" lon="6.173">
        <ele>1017.212158</ele>
        <time>2011-08-04T08:01:00Z</time>
      </trkpt>
      <trkpt lat="44.39662" lon="6.17348">
        <ele>1015.770264</ele>
        <time>2011-08-04T08:01:06Z</time>
      </trkpt>
      <trkpt lat="44.39647" lon="6.17374">
        <ele>1013.366943</ele>
        <time>2011-08-04T08:01:11Z</time>
      </trkpt>
      <trkpt lat="44.39616" lon="6.17339">
        <ele>1013.847412</ele>
        <time>2011-08-04T08:01:22Z</time>
      </trkpt>
      <trkpt lat="44.39593" lon="6.1732">
        <ele>1016.250732</ele>
        <time>2011-08-04T08:01:38Z</time>
      </trkpt>
      <trkpt lat="44.3957" lon="6.17333">
        <ele>1018.654053</ele>
        <time>2011-08-04T08:01:58Z</time>
      </trkpt>
      <trkpt lat="44.39568" lon="6.17335">
        <ele>1019.134766</ele>
        <time>2011-08-04T08:02:01Z</time>
      </trkpt>
      <trkpt lat="44.39568" lon="6.17335">
        <ele>1021.538086</ele>
        <time>2011-08-04T08:02:12Z</time>
      </trkpt>
      <trkpt lat="44.39547" lon="6.17352">
        <ele>1023.460938</ele>
        <time>2011-08-04T08:02:33Z</time>
      </trkpt>
      <trkpt lat="44.39526" lon="6.17363">
        <ele>1024.902832</ele>
        <time>2011-08-04T08:02:42Z</time>
      </trkpt>
      <trkpt lat="44.39522" lon="6.17363">
        <ele>1025.383301</ele>
        <time>2011-08-04T08:02:49Z</time>
      </trkpt>
      <trkpt lat="44.39495" lon="6.17396">
        <ele>1025.864014</ele>
        <time>2011-08-04T08:03:04Z</time>
      </trkpt>
      <trkpt lat="44.39447" lon="6.17431">
        <ele>1027.786621</ele>
        <time>2011-08-04T08:03:27Z</time>
      </trkpt>
      <trkpt lat="44.39402" lon="6.17456">
        <ele>1029.228516</ele>
        <time>2011-08-04T08:03:48Z</time>
      </trkpt>
      <trkpt lat="44.3937" lon="6.17505">
        <ele>1030.189941</ele>
        <time>2011-08-04T08:04:09Z</time>
      </trkpt>
      <trkpt lat="44.39378" lon="6.17543">
        <ele>1030.670654</ele>
        <time>2011-08-04T08:04:22Z</time>
      </trkpt>
      <trkpt lat="44.39407" lon="6.17566">
        <ele>1032.112549</ele>
        <time>2011-08-04T08:04:37Z</time>
      </trkpt>
      <trkpt lat="44.39441" lon="6.17594">
        <ele>1032.593262</ele>
        <time>2011-08-04T08:04:52Z</time>
      </trkpt>
      <trkpt lat="44.39464" lon="6.17652">
        <ele>1033.07373</ele>
        <time>2011-08-04T08:05:10Z</time>
      </trkpt>
      <trkpt lat="44.39475" lon="6.17693">
        <ele>1033.554443</ele>
        <time>2011-08-04T08:05:27Z</time>
      </trkpt>
      <trkpt lat="44.39475" lon="6.17695">
        <ele>1033.07373</ele>
        <time>2011-08-04T08:05:40Z</time>
      </trkpt>
      <trkpt lat="44.39481" lon="6.17741">
        <ele>1033.07373</ele>
        <time>2011-08-04T08:05:53Z</time>
      </trkpt>
      <trkpt lat="44.39491" lon="6.17812">
        <ele>1034.515869</ele>
        <time>2011-08-04T08:06:12Z</time>
      </trkpt>
      <trkpt lat="44.39506" lon="6.17873">
        <ele>1035.957764</ele>
        <time>2011-08-04T08:06:31Z</time>
      </trkpt>
      <trkpt lat="44.39532" lon="6.17944">
        <ele>1036.438721</ele>
        <time>2011-08-04T08:06:53Z</time>
      </trkpt>
      <trkpt lat="44.39558" lon="6.18009">
        <ele>1037.399902</ele>
        <time>2011-08-04T08:07:14Z</time>
      </trkpt>
      <trkpt lat="44.3959" lon="6.18096">
        <ele>1038.361328</ele>
        <time>2011-08-04T08:07:41Z</time>
      </trkpt>
      <trkpt lat="44.39586" lon="6.18164">
        <ele>1039.32251</ele>
        <time>2011-08-04T08:08:01Z</time>
      </trkpt>
      <trkpt lat="44.39576" lon="6.1823">
        <ele>1039.803223</ele>
        <time>2011-08-04T08:08:21Z</time>
      </trkpt>
      <trkpt lat="44.39536" lon="6.18275">
        <ele>1040.764404</ele>
        <time>2011-08-04T08:08:41Z</time>
      </trkpt>
      <trkpt lat="44.39513" lon="6.18323">
        <ele>1041.72583</ele>
        <time>2011-08-04T08:08:57Z</time>
      </trkpt>
      <trkpt lat="44.39528" lon="6.18379">
        <ele>1040.764404</ele>
        <time>2011-08-04T08:09:13Z</time>
      </trkpt>
      <trkpt lat="44.39559" lon="6.18434">
        <ele>1041.245117</ele>
        <time>2011-08-04T08:09:32Z</time>
      </trkpt>
      <trkpt lat="44.39605" lon="6.18457">
        <ele>1042.206543</ele>
        <time>2011-08-04T08:09:52Z</time>
      </trkpt>
      <trkpt lat="44.39645" lon="6.18478">
        <ele>1042.206543</ele>
        <time>2011-08-04T08:10:09Z</time>
      </trkpt>
      <trkpt lat="44.3968" lon="6.18501">
        <ele>1045.090332</ele>
        <time>2011-08-04T08:10:29Z</time>
      </trkpt>
      <trkpt lat="44.39687" lon="6.18542">
        <ele>1048.454834</ele>
        <time>2011-08-04T08:10:45Z</time>
      </trkpt>
      <trkpt lat="44.39687" lon="6.18584">
        <ele>1051.338867</ele>
        <time>2011-08-04T08:11:02Z</time>
      </trkpt>
      <trkpt lat="44.39687" lon="6.18586">
        <ele>1051.338867</ele>
        <time>2011-08-04T08:11:03Z</time>
      </trkpt>
      <trkpt lat="44.39703" lon="6.1864">
        <ele>1053.742432</ele>
        <time>2011-08-04T08:11:26Z</time>
      </trkpt>
      <trkpt lat="44.39717" lon="6.18685">
        <ele>1057.106934</ele>
        <time>2011-08-04T08:11:45Z</time>
      </trkpt>
      <trkpt lat="44.39706" lon="6.18742">
        <ele>1059.029541</ele>
        <time>2011-08-04T08:12:08Z</time>
      </trkpt>
      <trkpt lat="44.39681" lon="6.18798">
        <ele>1061.432861</ele>
        <time>2011-08-04T08:12:32Z</time>
      </trkpt>
      <trkpt lat="44.39661" lon="6.18866">
        <ele>1064.31665</ele>
        <time>2011-08-04T08:13:00Z</time>
      </trkpt>
      <trkpt lat="44.39646" lon="6.18925">
        <ele>1065.758789</ele>
        <time>2011-08-04T08:13:23Z</time>
      </trkpt>
      <trkpt lat="44.3965" lon="6.18981">
        <ele>1068.162109</ele>
        <time>2011-08-04T08:13:44Z</time>
      </trkpt>
      <trkpt lat="44.39678" lon="6.19028">
        <ele>1070.56543</ele>
        <time>2011-08-04T08:14:07Z</time>
      </trkpt>
      <trkpt lat="44.39719" lon="6.19049">
        <ele>1072.488037</ele>
        <time>2011-08-04T08:14:29Z</time>
      </trkpt>
      <trkpt lat="44.39754" lon="6.19078">
        <ele>1073.449463</ele>
        <time>2011-08-04T08:14:46Z</time>
      </trkpt>
      <trkpt lat="44.39795" lon="6.19141">
        <ele>1072.96875</ele>
        <time>2011-08-04T08:15:06Z</time>
      </trkpt>
      <trkpt lat="44.3984" lon="6.1921">
        <ele>1072.488037</ele>
        <time>2011-08-04T08:15:25Z</time>
      </trkpt>
      <trkpt lat="44.39849" lon="6.19281">
        <ele>1072.488037</ele>
        <time>2011-08-04T08:15:39Z</time>
      </trkpt>
      <trkpt lat="44.39838" lon="6.19376">
        <ele>1072.007324</ele>
        <time>2011-08-04T08:15:56Z</time>
      </trkpt>
      <trkpt lat="44.39835" lon="6.19469">
        <ele>1070.084717</ele>
        <time>2011-08-04T08:16:10Z</time>
      </trkpt>
      <trkpt lat="44.3984" lon="6.19495">
        <ele>1070.084717</ele>
        <time>2011-08-04T08:16:14Z</time>
      </trkpt>
      <trkpt lat="44.39843" lon="6.19508">
        <ele>1070.084717</ele>
        <time>2011-08-04T08:16:16Z</time>
      </trkpt>
      <trkpt lat="44.39843" lon="6.1954">
        <ele>1070.084717</ele>
        <time>2011-08-04T08:16:21Z</time>
      </trkpt>
      <trkpt lat="44.39827" lon="6.19694">
        <ele>1068.162109</ele>
        <time>2011-08-04T08:16:45Z</time>
      </trkpt>
      <trkpt lat="44.39829" lon="6.19798">
        <ele>1067.681152</ele>
        <time>2011-08-04T08:17:03Z</time>
      </trkpt>
      <trkpt lat="44.39833" lon="6.19853">
        <ele>1067.681152</ele>
        <time>2011-08-04T08:17:12Z</time>
      </trkpt>
      <trkpt lat="44.39831" lon="6.19888">
        <ele>1067.200684</ele>
        <time>2011-08-04T08:17:18Z</time>
      </trkpt>
      <trkpt lat="44.39803" lon="6.19995">
        <ele>1067.200684</ele>
        <time>2011-08-04T08:17:38Z</time>
      </trkpt>
      <trkpt lat="44.39795" lon="6.20096">
        <ele>1066.239258</ele>
        <time>2011-08-04T08:17:56Z</time>
      </trkpt>
      <trkpt lat="44.39769" lon="6.20182">
        <ele>1066.239258</ele>
        <time>2011-08-04T08:18:13Z</time>
      </trkpt>
      <trkpt lat="44.39757" lon="6.20199">
        <ele>1066.239258</ele>
        <time>2011-08-04T08:18:17Z</time>
      </trkpt>
      <trkpt lat="44.39684" lon="6.20288">
        <ele>1066.239258</ele>
        <time>2011-08-04T08:18:41Z</time>
      </trkpt>
      <trkpt lat="44.39663" lon="6.20334">
        <ele>1066.239258</ele>
        <time>2011-08-04T08:18:51Z</time>
      </trkpt>
      <trkpt lat="44.39651" lon="6.20415">
        <ele>1065.758789</ele>
        <time>2011-08-04T08:19:06Z</time>
      </trkpt>
      <trkpt lat="44.39659" lon="6.20463">
        <ele>1065.278076</ele>
        <time>2011-08-04T08:19:15Z</time>
      </trkpt>
      <trkpt lat="44.39631" lon="6.20513">
        <ele>1064.797363</ele>
        <time>2011-08-04T08:19:25Z</time>
      </trkpt>
      <trkpt lat="44.39597" lon="6.2053">
        <ele>1064.31665</ele>
        <time>2011-08-04T08:19:33Z</time>
      </trkpt>
      <trkpt lat="44.39518" lon="6.20584">
        <ele>1064.797363</ele>
        <time>2011-08-04T08:19:55Z</time>
      </trkpt>
      <trkpt lat="44.39499" lon="6.20617">
        <ele>1064.31665</ele>
        <time>2011-08-04T08:20:03Z</time>
      </trkpt>
      <trkpt lat="44.39456" lon="6.20734">
        <ele>1063.835938</ele>
        <time>2011-08-04T08:20:26Z</time>
      </trkpt>
      <trkpt lat="44.3943" lon="6.20838">
        <ele>1063.835938</ele>
        <time>2011-08-04T08:20:46Z</time>
      </trkpt>
      <trkpt lat="44.39396" lon="6.2085">
        <ele>1062.874756</ele>
        <time>2011-08-04T08:20:55Z</time>
      </trkpt>
      <trkpt lat="44.39358" lon="6.20828">
        <ele>1062.874756</ele>
        <time>2011-08-04T08:21:05Z</time>
      </trkpt>
      <trkpt lat="44.39323" lon="6.2082">
        <ele>1062.394043</ele>
        <time>2011-08-04T08:21:14Z</time>
      </trkpt>
      <trkpt lat="44.39293" lon="6.20848">
        <ele>1061.432861</ele>
        <time>2011-08-04T08:21:24Z</time>
      </trkpt>
      <trkpt lat="44.39303" lon="6.2088">
        <ele>1061.913574</ele>
        <time>2011-08-04T08:21:35Z</time>
      </trkpt>
      <trkpt lat="44.39323" lon="6.2091">
        <ele>1065.278076</ele>
        <time>2011-08-04T08:21:50Z</time>
      </trkpt>
      <trkpt lat="44.39333" lon="6.20948">
        <ele>1068.162109</ele>
        <time>2011-08-04T08:22:08Z</time>
      </trkpt>
      <trkpt lat="44.39328" lon="6.20996">
        <ele>1071.046143</ele>
        <time>2011-08-04T08:22:29Z</time>
      </trkpt>
      <trkpt lat="44.39328" lon="6.21019">
        <ele>1072.96875</ele>
        <time>2011-08-04T08:22:48Z</time>
      </trkpt>
      <trkpt lat="44.39304" lon="6.21094">
        <ele>1075.852539</ele>
        <time>2011-08-04T08:23:13Z</time>
      </trkpt>
      <trkpt lat="44.39291" lon="6.21155">
        <ele>1079.217041</ele>
        <time>2011-08-04T08:23:39Z</time>
      </trkpt>
      <trkpt lat="44.39286" lon="6.21215">
        <ele>1081.620361</ele>
        <time>2011-08-04T08:24:04Z</time>
      </trkpt>
      <trkpt lat="44.39282" lon="6.21264">
        <ele>1084.023926</ele>
        <time>2011-08-04T08:24:24Z</time>
      </trkpt>
      <trkpt lat="44.39281" lon="6.21269">
        <ele>1083.542969</ele>
        <time>2011-08-04T08:24:26Z</time>
      </trkpt>
      <trkpt lat="44.39279" lon="6.21313">
        <ele>1085.46582</ele>
        <time>2011-08-04T08:24:47Z</time>
      </trkpt>
      <trkpt lat="44.39287" lon="6.21367">
        <ele>1088.349854</ele>
        <time>2011-08-04T08:25:06Z</time>
      </trkpt>
      <trkpt lat="44.39296" lon="6.21415">
        <ele>1091.714355</ele>
        <time>2011-08-04T08:25:25Z</time>
      </trkpt>
      <trkpt lat="44.39306" lon="6.21469">
        <ele>1094.598145</ele>
        <time>2011-08-04T08:25:48Z</time>
      </trkpt>
      <trkpt lat="44.39311" lon="6.2153">
        <ele>1095.55957</ele>
        <time>2011-08-04T08:26:07Z</time>
      </trkpt>
      <trkpt lat="44.39317" lon="6.21595">
        <ele>1095.55957</ele>
        <time>2011-08-04T08:26:28Z</time>
      </trkpt>
      <trkpt lat="44.39317" lon="6.21655">
        <ele>1095.078857</ele>
        <time>2011-08-04T08:26:46Z</time>
      </trkpt>
      <trkpt lat="44.39281" lon="6.21679">
        <ele>1096.520996</ele>
        <time>2011-08-04T08:27:06Z</time>
      </trkpt>
      <trkpt lat="44.39278" lon="6.21682">
        <ele>1097.001465</ele>
        <time>2011-08-04T08:27:09Z</time>
      </trkpt>
      <trkpt lat="44.39261" lon="6.21697">
        <ele>1099.404785</ele>
        <time>2011-08-04T08:27:24Z</time>
      </trkpt>
      <trkpt lat="44.39256" lon="6.21702">
        <ele>1100.366455</ele>
        <time>2011-08-04T08:27:30Z</time>
      </trkpt>
      <trkpt lat="44.39237" lon="6.21724">
        <ele>1103.250244</ele>
        <time>2011-08-04T08:27:51Z</time>
      </trkpt>
      <trkpt lat="44.39215" lon="6.21746">
        <ele>1105.653564</ele>
        <time>2011-08-04T08:28:12Z</time>
      </trkpt>
      <trkpt lat="44.39204" lon="6.21756">
        <ele>1108.537354</ele>
        <time>2011-08-04T08:28:33Z</time>
      </trkpt>
      <trkpt lat="44.39204" lon="6.21756">
        <ele>1109.979248</ele>
        <time>2011-08-04T08:28:40Z</time>
      </trkpt>
      <trkpt lat="44.3919" lon="6.21796">
        <ele>1110.940674</ele>
        <time>2011-08-04T08:28:55Z</time>
      </trkpt>
      <trkpt lat="44.39224" lon="6.2179">
        <ele>1113.824463</ele>
        <time>2011-08-04T08:29:20Z</time>
      </trkpt>
      <trkpt lat="44.39241" lon="6.21782">
        <ele>1115.266602</ele>
        <time>2011-08-04T08:29:35Z</time>
      </trkpt>
      <trkpt lat="44.39243" lon="6.21795">
        <ele>1115.747314</ele>
        <time>2011-08-04T08:29:46Z</time>
      </trkpt>
      <trkpt lat="44.39217" lon="6.21814">
        <ele>1119.112061</ele>
        <time>2011-08-04T08:30:10Z</time>
      </trkpt>
      <trkpt lat="44.39217" lon="6.21814">
        <ele>1119.592773</ele>
        <time>2011-08-04T08:30:13Z</time>
      </trkpt>
      <trkpt lat="44.39196" lon="6.21841">
        <ele>1122.476563</ele>
        <time>2011-08-04T08:30:33Z</time>
      </trkpt>
      <trkpt lat="44.39171" lon="6.21853">
        <ele>1125.841064</ele>
        <time>2011-08-04T08:30:57Z</time>
      </trkpt>
      <trkpt lat="44.39145" lon="6.21855">
        <ele>1128.244385</ele>
        <time>2011-08-04T08:31:19Z</time>
      </trkpt>
      <trkpt lat="44.39118" lon="6.21851">
        <ele>1131.128418</ele>
        <time>2011-08-04T08:31:42Z</time>
      </trkpt>
      <trkpt lat="44.39104" lon="6.21844">
        <ele>1133.531738</ele>
        <time>2011-08-04T08:32:02Z</time>
      </trkpt>
      <trkpt lat="44.39079" lon="6.21823">
        <ele>1134.973877</ele>
        <time>2011-08-04T08:32:18Z</time>
      </trkpt>
      <trkpt lat="44.39068" lon="6.21811">
        <ele>1135.935059</ele>
        <time>2011-08-04T08:32:30Z</time>
      </trkpt>
      <trkpt lat="44.39063" lon="6.21823">
        <ele>1136.415771</ele>
        <time>2011-08-04T08:32:39Z</time>
      </trkpt>
      <trkpt lat="44.39084" lon="6.21843">
        <ele>1138.819092</ele>
        <time>2011-08-04T08:32:58Z</time>
      </trkpt>
      <trkpt lat="44.39089" lon="6.2185">
        <ele>1138.819092</ele>
        <time>2011-08-04T08:33:05Z</time>
      </trkpt>
      <trkpt lat="44.39112" lon="6.21881">
        <ele>1142.183594</ele>
        <time>2011-08-04T08:33:29Z</time>
      </trkpt>
      <trkpt lat="44.39137" lon="6.21897">
        <ele>1145.067383</ele>
        <time>2011-08-04T08:33:52Z</time>
      </trkpt>
      <trkpt lat="44.39157" lon="6.21919">
        <ele>1147.951416</ele>
        <time>2011-08-04T08:34:13Z</time>
      </trkpt>
      <trkpt lat="44.39158" lon="6.2192">
        <ele>1147.951416</ele>
        <time>2011-08-04T08:34:14Z</time>
      </trkpt>
      <trkpt lat="44.39161" lon="6.21931">
        <ele>1148.912842</ele>
        <time>2011-08-04T08:34:23Z</time>
      </trkpt>
      <trkpt lat="44.39163" lon="6.21966">
        <ele>1151.796875</ele>
        <time>2011-08-04T08:34:44Z</time>
      </trkpt>
      <trkpt lat="44.39163" lon="6.21973">
        <ele>1152.277344</ele>
        <time>2011-08-04T08:34:47Z</time>
      </trkpt>
      <trkpt lat="44.39163" lon="6.21979">
        <ele>1153.719482</ele>
        <time>2011-08-04T08:34:53Z</time>
      </trkpt>
      <trkpt lat="44.3915" lon="6.22002">
        <ele>1156.603271</ele>
        <time>2011-08-04T08:35:12Z</time>
      </trkpt>
      <trkpt lat="44.39121" lon="6.22011">
        <ele>1159.967773</ele>
        <time>2011-08-04T08:35:36Z</time>
      </trkpt>
      <trkpt lat="44.39104" lon="6.22018">
        <ele>1162.851807</ele>
        <time>2011-08-04T08:35:50Z</time>
      </trkpt>
      <trkpt lat="44.39104" lon="6.22018">
        <ele>1166.216553</ele>
        <time>2011-08-04T08:36:11Z</time>
      </trkpt>
      <trkpt lat="44.39067" lon="6.22046">
        <ele>1169.581299</ele>
        <time>2011-08-04T08:36:34Z</time>
      </trkpt>
      <trkpt lat="44.39054" lon="6.22062">
        <ele>1170.061768</ele>
        <time>2011-08-04T08:36:43Z</time>
      </trkpt>
      <trkpt lat="44.39052" lon="6.22064">
        <ele>1170.54248</ele>
        <time>2011-08-04T08:36:45Z</time>
      </trkpt>
      <trkpt lat="44.3905" lon="6.22067">
        <ele>1170.54248</ele>
        <time>2011-08-04T08:36:47Z</time>
      </trkpt>
      <trkpt lat="44.39024" lon="6.22081">
        <ele>1173.426514</ele>
        <time>2011-08-04T08:37:09Z</time>
      </trkpt>
      <trkpt lat="44.39002" lon="6.22091">
        <ele>1176.310303</ele>
        <time>2011-08-04T08:37:30Z</time>
      </trkpt>
      <trkpt lat="44.38986" lon="6.22098">
        <ele>1178.23291</ele>
        <time>2011-08-04T08:37:47Z</time>
      </trkpt>
      <trkpt lat="44.38956" lon="6.22106">
        <ele>1181.117188</ele>
        <time>2011-08-04T08:38:10Z</time>
      </trkpt>
      <trkpt lat="44.38952" lon="6.2211">
        <ele>1181.117188</ele>
        <time>2011-08-04T08:38:14Z</time>
      </trkpt>
      <trkpt lat="44.3895" lon="6.22112">
        <ele>1181.597656</ele>
        <time>2011-08-04T08:38:17Z</time>
      </trkpt>
      <trkpt lat="44.3894" lon="6.22122">
        <ele>1184.000977</ele>
        <time>2011-08-04T08:38:33Z</time>
      </trkpt>
      <trkpt lat="44.38931" lon="6.22131">
        <ele>1186.884766</ele>
        <time>2011-08-04T08:38:51Z</time>
      </trkpt>
      <trkpt lat="44.38931" lon="6.22131">
        <ele>1186.884766</ele>
        <time>2011-08-04T08:38:55Z</time>
      </trkpt>
      <trkpt lat="44.38909" lon="6.22155">
        <ele>1188.326904</ele>
        <time>2011-08-04T08:39:04Z</time>
      </trkpt>
      <trkpt lat="44.38901" lon="6.22166">
        <ele>1189.288086</ele>
        <time>2011-08-04T08:39:11Z</time>
      </trkpt>
      <trkpt lat="44.389" lon="6.22167">
        <ele>1189.768799</ele>
        <time>2011-08-04T08:39:16Z</time>
      </trkpt>
      <trkpt lat="44.38876" lon="6.22181">
        <ele>1193.133301</ele>
        <time>2011-08-04T08:39:36Z</time>
      </trkpt>
      <trkpt lat="44.38874" lon="6.22182">
        <ele>1193.614014</ele>
        <time>2011-08-04T08:39:39Z</time>
      </trkpt>
      <trkpt lat="44.38874" lon="6.22182">
        <ele>1196.498291</ele>
        <time>2011-08-04T08:40:00Z</time>
      </trkpt>
      <trkpt lat="44.38874" lon="6.22182">
        <ele>1197.940186</ele>
        <time>2011-08-04T08:40:15Z</time>
      </trkpt>
      <trkpt lat="44.38807" lon="6.22182">
        <ele>1200.343506</ele>
        <time>2011-08-04T08:40:37Z</time>
      </trkpt>
      <trkpt lat="44.38782" lon="6.2217">
        <ele>1203.227295</ele>
        <time>2011-08-04T08:40:58Z</time>
      </trkpt>
      <trkpt lat="44.3877" lon="6.22169">
        <ele>1204.188721</ele>
        <time>2011-08-04T08:41:09Z</time>
      </trkpt>
      <trkpt lat="44.38765" lon="6.2217">
        <ele>1204.669189</ele>
        <time>2011-08-04T08:41:14Z</time>
      </trkpt>
      <trkpt lat="44.38746" lon="6.22174">
        <ele>1207.07251</ele>
        <time>2011-08-04T08:41:33Z</time>
      </trkpt>
      <trkpt lat="44.38733" lon="6.22176">
        <ele>1208.995117</ele>
        <time>2011-08-04T08:41:45Z</time>
      </trkpt>
      <trkpt lat="44.38721" lon="6.22173">
        <ele>1209.47583</ele>
        <time>2011-08-04T08:41:52Z</time>
      </trkpt>
      <trkpt lat="44.38729" lon="6.22163">
        <ele>1210.437012</ele>
        <time>2011-08-04T08:42:01Z</time>
      </trkpt>
      <trkpt lat="44.38748" lon="6.22157">
        <ele>1212.359863</ele>
        <time>2011-08-04T08:42:19Z</time>
      </trkpt>
      <trkpt lat="44.38754" lon="6.22153">
        <ele>1213.321289</ele>
        <time>2011-08-04T08:42:27Z</time>
      </trkpt>
      <trkpt lat="44.38768" lon="6.22137">
        <ele>1214.282471</ele>
        <time>2011-08-04T08:42:45Z</time>
      </trkpt>
      <trkpt lat="44.38765" lon="6.22133">
        <ele>1214.763184</ele>
        <time>2011-08-04T08:42:48Z</time>
      </trkpt>
      <trkpt lat="44.38736" lon="6.22143">
        <ele>1217.646973</ele>
        <time>2011-08-04T08:43:11Z</time>
      </trkpt>
      <trkpt lat="44.38715" lon="6.22142">
        <ele>1220.050293</ele>
        <time>2011-08-04T08:43:32Z</time>
      </trkpt>
      <trkpt lat="44.38684" lon="6.22135">
        <ele>1222.934326</ele>
        <time>2011-08-04T08:43:57Z</time>
      </trkpt>
      <trkpt lat="44.38656" lon="6.22131">
        <ele>1225.337402</ele>
        <time>2011-08-04T08:44:21Z</time>
      </trkpt>
      <trkpt lat="44.38648" lon="6.22129">
        <ele>1226.779541</ele>
        <time>2011-08-04T08:44:33Z</time>
      </trkpt>
      <trkpt lat="44.38648" lon="6.22129">
        <ele>1229.182861</ele>
        <time>2011-08-04T08:44:47Z</time>
      </trkpt>
      <trkpt lat="44.38619" lon="6.22122">
        <ele>1230.144287</ele>
        <time>2011-08-04T08:44:56Z</time>
      </trkpt>
      <trkpt lat="44.38612" lon="6.2213">
        <ele>1231.586182</ele>
        <time>2011-08-04T08:45:04Z</time>
      </trkpt>
      <trkpt lat="44.38612" lon="6.2213">
        <ele>1232.066895</ele>
        <time>2011-08-04T08:45:09Z</time>
      </trkpt>
      <trkpt lat="44.38612" lon="6.2213">
        <ele>1233.028076</ele>
        <time>2011-08-04T08:45:16Z</time>
      </trkpt>
      <trkpt lat="44.38605" lon="6.22147">
        <ele>1233.508789</ele>
        <time>2011-08-04T08:45:21Z</time>
      </trkpt>
      <trkpt lat="44.3861" lon="6.22164">
        <ele>1233.989502</ele>
        <time>2011-08-04T08:45:25Z</time>
      </trkpt>
      <trkpt lat="44.38632" lon="6.22182">
        <ele>1236.392822</ele>
        <time>2011-08-04T08:45:49Z</time>
      </trkpt>
      <trkpt lat="44.38642" lon="6.22209">
        <ele>1239.276611</ele>
        <time>2011-08-04T08:46:10Z</time>
      </trkpt>
      <trkpt lat="44.3864" lon="6.22213">
        <ele>1239.757324</ele>
        <time>2011-08-04T08:46:12Z</time>
      </trkpt>
      <trkpt lat="44.3864" lon="6.22215">
        <ele>1241.199219</ele>
        <time>2011-08-04T08:46:22Z</time>
      </trkpt>
      <trkpt lat="44.38627" lon="6.22226">
        <ele>1242.160645</ele>
        <time>2011-08-04T08:46:32Z</time>
      </trkpt>
      <trkpt lat="44.38617" lon="6.22235">
        <ele>1243.602539</ele>
        <time>2011-08-04T08:46:42Z</time>
      </trkpt>
      <trkpt lat="44.386" lon="6.2225">
        <ele>1246.486816</ele>
        <time>2011-08-04T08:47:03Z</time>
      </trkpt>
      <trkpt lat="44.386" lon="6.2225">
        <ele>1248.40918</ele>
        <time>2011-08-04T08:47:21Z</time>
      </trkpt>
      <trkpt lat="44.38566" lon="6.22268">
        <ele>1250.8125</ele>
        <time>2011-08-04T08:47:39Z</time>
      </trkpt>
      <trkpt lat="44.38566" lon="6.22268">
        <ele>1251.293213</ele>
        <time>2011-08-04T08:47:43Z</time>
      </trkpt>
      <trkpt lat="44.38553" lon="6.22271">
        <ele>1251.773926</ele>
        <time>2011-08-04T08:47:47Z</time>
      </trkpt>
      <trkpt lat="44.38558" lon="6.2227">
        <ele>1251.773926</ele>
        <time>2011-08-04T08:47:51Z</time>
      </trkpt>
      <trkpt lat="44.38586" lon="6.22261">
        <ele>1253.696533</ele>
        <time>2011-08-04T08:48:11Z</time>
      </trkpt>
      <trkpt lat="44.38588" lon="6.22259">
        <ele>1254.177246</ele>
        <time>2011-08-04T08:48:13Z</time>
      </trkpt>
      <trkpt lat="44.38603" lon="6.22216">
        <ele>1255.619141</ele>
        <time>2011-08-04T08:48:36Z</time>
      </trkpt>
      <trkpt lat="44.38588" lon="6.22203">
        <ele>1258.50293</ele>
        <time>2011-08-04T08:48:51Z</time>
      </trkpt>
      <trkpt lat="44.38567" lon="6.22197">
        <ele>1260.425781</ele>
        <time>2011-08-04T08:49:08Z</time>
      </trkpt>
      <trkpt lat="44.38542" lon="6.22182">
        <ele>1262.829102</ele>
        <time>2011-08-04T08:49:29Z</time>
      </trkpt>
      <trkpt lat="44.38532" lon="6.22175">
        <ele>1263.790283</ele>
        <time>2011-08-04T08:49:38Z</time>
      </trkpt>
      <trkpt lat="44.38522" lon="6.2217">
        <ele>1265.232422</ele>
        <time>2011-08-04T08:49:47Z</time>
      </trkpt>
      <trkpt lat="44.38508" lon="6.2216">
        <ele>1267.155029</ele>
        <time>2011-08-04T08:50:03Z</time>
      </trkpt>
      <trkpt lat="44.38504" lon="6.22157">
        <ele>1267.635498</ele>
        <time>2011-08-04T08:50:08Z</time>
      </trkpt>
      <trkpt lat="44.385" lon="6.22154">
        <ele>1267.635498</ele>
        <time>2011-08-04T08:50:10Z</time>
      </trkpt>
      <trkpt lat="44.38495" lon="6.22139">
        <ele>1268.116211</ele>
        <time>2011-08-04T08:50:16Z</time>
      </trkpt>
      <trkpt lat="44.38508" lon="6.22122">
        <ele>1270.038818</ele>
        <time>2011-08-04T08:50:29Z</time>
      </trkpt>
      <trkpt lat="44.38523" lon="6.22094">
        <ele>1272.442139</ele>
        <time>2011-08-04T08:50:50Z</time>
      </trkpt>
      <trkpt lat="44.38523" lon="6.22086">
        <ele>1273.403564</ele>
        <time>2011-08-04T08:50:54Z</time>
      </trkpt>
      <trkpt lat="44.38537" lon="6.22056">
        <ele>1275.325928</ele>
        <time>2011-08-04T08:51:13Z</time>
      </trkpt>
      <trkpt lat="44.38549" lon="6.22046">
        <ele>1277.249023</ele>
        <time>2011-08-04T08:51:23Z</time>
      </trkpt>
      <trkpt lat="44.38549" lon="6.22035">
        <ele>1278.210205</ele>
        <time>2011-08-04T08:51:30Z</time>
      </trkpt>
      <trkpt lat="44.38543" lon="6.21992">
        <ele>1280.613525</ele>
        <time>2011-08-04T08:51:53Z</time>
      </trkpt>
      <trkpt lat="44.38542" lon="6.2199">
        <ele>1281.094238</ele>
        <time>2011-08-04T08:51:58Z</time>
      </trkpt>
      <trkpt lat="44.38554" lon="6.2197">
        <ele>1283.016602</ele>
        <time>2011-08-04T08:52:09Z</time>
      </trkpt>
      <trkpt lat="44.38575" lon="6.21977">
        <ele>1284.939453</ele>
        <time>2011-08-04T08:52:24Z</time>
      </trkpt>
      <trkpt lat="44.38605" lon="6.21971">
        <ele>1286.861816</ele>
        <time>2011-08-04T08:52:47Z</time>
      </trkpt>
      <trkpt lat="44.38614" lon="6.21912">
        <ele>1289.265137</ele>
        <time>2011-08-04T08:53:17Z</time>
      </trkpt>
      <trkpt lat="44.38617" lon="6.2189">
        <ele>1291.187744</ele>
        <time>2011-08-04T08:53:29Z</time>
      </trkpt>
      <trkpt lat="44.38623" lon="6.21868">
        <ele>1292.149414</ele>
        <time>2011-08-04T08:53:40Z</time>
      </trkpt>
      <trkpt lat="44.38636" lon="6.21843">
        <ele>1294.072021</ele>
        <time>2011-08-04T08:53:55Z</time>
      </trkpt>
      <trkpt lat="44.3864" lon="6.21833">
        <ele>1295.033203</ele>
        <time>2011-08-04T08:54:00Z</time>
      </trkpt>
      <trkpt lat="44.3864" lon="6.21793">
        <ele>1297.436523</ele>
        <time>2011-08-04T08:54:21Z</time>
      </trkpt>
      <trkpt lat="44.38652" lon="6.21764">
        <ele>1298.878418</ele>
        <time>2011-08-04T08:54:38Z</time>
      </trkpt>
      <trkpt lat="44.38653" lon="6.21763">
        <ele>1298.878418</ele>
        <time>2011-08-04T08:54:39Z</time>
      </trkpt>
      <trkpt lat="44.38661" lon="6.21722">
        <ele>1301.762451</ele>
        <time>2011-08-04T08:54:59Z</time>
      </trkpt>
      <trkpt lat="44.38662" lon="6.21718">
        <ele>1301.762451</ele>
        <time>2011-08-04T08:55:01Z</time>
      </trkpt>
      <trkpt lat="44.38678" lon="6.21675">
        <ele>1305.126953</ele>
        <time>2011-08-04T08:55:25Z</time>
      </trkpt>
      <trkpt lat="44.38703" lon="6.21643">
        <ele>1306.568848</ele>
        <time>2011-08-04T08:55:44Z</time>
      </trkpt>
      <trkpt lat="44.38716" lon="6.21599">
        <ele>1309.453125</ele>
        <time>2011-08-04T08:56:06Z</time>
      </trkpt>
      <trkpt lat="44.38725" lon="6.21586">
        <ele>1309.933594</ele>
        <time>2011-08-04T08:56:13Z</time>
      </trkpt>
      <trkpt lat="44.38754" lon="6.21544">
        <ele>1311.375732</ele>
        <time>2011-08-04T08:56:36Z</time>
      </trkpt>
      <trkpt lat="44.38756" lon="6.21535">
        <ele>1312.336914</ele>
        <time>2011-08-04T08:56:41Z</time>
      </trkpt>
      <trkpt lat="44.38753" lon="6.21531">
        <ele>1312.817627</ele>
        <time>2011-08-04T08:56:53Z</time>
      </trkpt>
      <trkpt lat="44.38753" lon="6.21531">
        <ele>1312.817627</ele>
        <time>2011-08-04T08:57:25Z</time>
      </trkpt>
      <trkpt lat="44.38753" lon="6.21531">
        <ele>1313.778809</ele>
        <time>2011-08-04T08:58:12Z</time>
      </trkpt>
      <trkpt lat="44.38753" lon="6.21531">
        <ele>1312.817627</ele>
        <time>2011-08-04T08:59:04Z</time>
      </trkpt>
      <trkpt lat="44.3874" lon="6.21517">
        <ele>1313.778809</ele>
        <time>2011-08-04T08:59:27Z</time>
      </trkpt>
      <trkpt lat="44.38714" lon="6.21504">
        <ele>1314.740234</ele>
        <time>2011-08-04T08:59:44Z</time>
      </trkpt>
      <trkpt lat="44.38699" lon="6.21509">
        <ele>1315.70166</ele>
        <time>2011-08-04T08:59:53Z</time>
      </trkpt>
      <trkpt lat="44.38673" lon="6.21486">
        <ele>1316.182129</ele>
        <time>2011-08-04T09:00:07Z</time>
      </trkpt>
      <trkpt lat="44.3864" lon="6.21442">
        <ele>1316.662842</ele>
        <time>2011-08-04T09:00:25Z</time>
      </trkpt>
      <trkpt lat="44.38607" lon="6.21424">
        <ele>1317.143555</ele>
        <time>2011-08-04T09:00:36Z</time>
      </trkpt>
      <trkpt lat="44.38586" lon="6.21424">
        <ele>1317.624023</ele>
        <time>2011-08-04T09:00:44Z</time>
      </trkpt>
      <trkpt lat="44.38577" lon="6.21425">
        <ele>1318.104736</ele>
        <time>2011-08-04T09:00:47Z</time>
      </trkpt>
      <trkpt lat="44.38546" lon="6.21404">
        <ele>1318.585449</ele>
        <time>2011-08-04T09:00:59Z</time>
      </trkpt>
      <trkpt lat="44.38533" lon="6.21354">
        <ele>1319.546875</ele>
        <time>2011-08-04T09:01:10Z</time>
      </trkpt>
      <trkpt lat="44.38522" lon="6.21315">
        <ele>1320.027344</ele>
        <time>2011-08-04T09:01:19Z</time>
      </trkpt>
      <trkpt lat="44.38511" lon="6.21264">
        <ele>1320.98877</ele>
        <time>2011-08-04T09:01:30Z</time>
      </trkpt>
      <trkpt lat="44.38475" lon="6.21226">
        <ele>1322.430664</ele>
        <time>2011-08-04T09:01:44Z</time>
      </trkpt>
      <trkpt lat="44.38447" lon="6.21195">
        <ele>1322.430664</ele>
        <time>2011-08-04T09:01:54Z</time>
      </trkpt>
      <trkpt lat="44.38418" lon="6.21191">
        <ele>1323.872559</ele>
        <time>2011-08-04T09:02:06Z</time>
      </trkpt>
      <trkpt lat="44.38408" lon="6.21183">
        <ele>1324.834229</ele>
        <time>2011-08-04T09:02:11Z</time>
      </trkpt>
      <trkpt lat="44.38416" lon="6.21132">
        <ele>1325.79541</ele>
        <time>2011-08-04T09:02:25Z</time>
      </trkpt>
      <trkpt lat="44.38416" lon="6.21071">
        <ele>1325.314697</ele>
        <time>2011-08-04T09:02:39Z</time>
      </trkpt>
      <trkpt lat="44.38404" lon="6.21009">
        <ele>1326.756836</ele>
        <time>2011-08-04T09:02:56Z</time>
      </trkpt>
      <trkpt lat="44.38368" lon="6.20957">
        <ele>1327.718018</ele>
        <time>2011-08-04T09:03:13Z</time>
      </trkpt>
      <trkpt lat="44.3833" lon="6.20929">
        <ele>1329.159912</ele>
        <time>2011-08-04T09:03:28Z</time>
      </trkpt>
      <trkpt lat="44.38324" lon="6.20928">
        <ele>1328.679443</ele>
        <time>2011-08-04T09:03:31Z</time>
      </trkpt>
      <trkpt lat="44.38306" lon="6.20936">
        <ele>1329.640625</ele>
        <time>2011-08-04T09:03:41Z</time>
      </trkpt>
      <trkpt lat="44.38291" lon="6.20937">
        <ele>1329.640625</ele>
        <time>2011-08-04T09:03:47Z</time>
      </trkpt>
      <trkpt lat="44.38278" lon="6.20898">
        <ele>1330.602051</ele>
        <time>2011-08-04T09:03:58Z</time>
      </trkpt>
      <trkpt lat="44.38261" lon="6.20895">
        <ele>1331.082764</ele>
        <time>2011-08-04T09:04:04Z</time>
      </trkpt>
      <trkpt lat="44.38246" lon="6.20861">
        <ele>1332.043945</ele>
        <time>2011-08-04T09:04:15Z</time>
      </trkpt>
      <trkpt lat="44.38241" lon="6.20805">
        <ele>1333.005127</ele>
        <time>2011-08-04T09:04:29Z</time>
      </trkpt>
      <trkpt lat="44.38207" lon="6.20786">
        <ele>1333.966553</ele>
        <time>2011-08-04T09:04:42Z</time>
      </trkpt>
      <trkpt lat="44.38204" lon="6.20754">
        <ele>1334.927979</ele>
        <time>2011-08-04T09:04:51Z</time>
      </trkpt>
      <trkpt lat="44.38219" lon="6.20707">
        <ele>1334.927979</ele>
        <time>2011-08-04T09:05:03Z</time>
      </trkpt>
      <trkpt lat="44.38201" lon="6.20659">
        <ele>1335.88916</ele>
        <time>2011-08-04T09:05:14Z</time>
      </trkpt>
      <trkpt lat="44.38161" lon="6.20598">
        <ele>1336.850342</ele>
        <time>2011-08-04T09:05:31Z</time>
      </trkpt>
      <trkpt lat="44.38119" lon="6.20563">
        <ele>1337.811768</ele>
        <time>2011-08-04T09:05:45Z</time>
      </trkpt>
      <trkpt lat="44.38099" lon="6.20548">
        <ele>1338.29248</ele>
        <time>2011-08-04T09:05:52Z</time>
      </trkpt>
      <trkpt lat="44.38104" lon="6.20521">
        <ele>1339.253662</ele>
        <time>2011-08-04T09:05:58Z</time>
      </trkpt>
      <trkpt lat="44.38103" lon="6.20463">
        <ele>1339.253662</ele>
        <time>2011-08-04T09:06:11Z</time>
      </trkpt>
      <trkpt lat="44.38064" lon="6.2042">
        <ele>1339.734375</ele>
        <time>2011-08-04T09:06:25Z</time>
      </trkpt>
      <trkpt lat="44.3804" lon="6.20389">
        <ele>1339.734375</ele>
        <time>2011-08-04T09:06:36Z</time>
      </trkpt>
      <trkpt lat="44.38008" lon="6.20361">
        <ele>1340.695801</ele>
        <time>2011-08-04T09:06:50Z</time>
      </trkpt>
      <trkpt lat="44.37973" lon="6.20354">
        <ele>1341.657227</ele>
        <time>2011-08-04T09:07:03Z</time>
      </trkpt>
      <trkpt lat="44.3797" lon="6.20349">
        <ele>1341.657227</ele>
        <time>2011-08-04T09:07:05Z</time>
      </trkpt>
      <trkpt lat="44.37978" lon="6.20317">
        <ele>1342.618652</ele>
        <time>2011-08-04T09:07:15Z</time>
      </trkpt>
      <trkpt lat="44.38014" lon="6.20292">
        <ele>1343.579834</ele>
        <time>2011-08-04T09:07:29Z</time>
      </trkpt>
      <trkpt lat="44.38016" lon="6.20256">
        <ele>1343.579834</ele>
        <time>2011-08-04T09:07:40Z</time>
      </trkpt>
      <trkpt lat="44.3799" lon="6.20253">
        <ele>1344.060547</ele>
        <time>2011-08-04T09:07:51Z</time>
      </trkpt>
      <trkpt lat="44.37971" lon="6.20252">
        <ele>1344.060547</ele>
        <time>2011-08-04T09:07:58Z</time>
      </trkpt>
      <trkpt lat="44.37965" lon="6.20224">
        <ele>1344.541016</ele>
        <time>2011-08-04T09:08:06Z</time>
      </trkpt>
      <trkpt lat="44.3798" lon="6.20159">
        <ele>1345.021729</ele>
        <time>2011-08-04T09:08:23Z</time>
      </trkpt>
      <trkpt lat="44.37992" lon="6.20094">
        <ele>1345.502441</ele>
        <time>2011-08-04T09:08:40Z</time>
      </trkpt>
      <trkpt lat="44.37986" lon="6.20069">
        <ele>1345.983154</ele>
        <time>2011-08-04T09:08:51Z</time>
      </trkpt>
      <trkpt lat="44.37982" lon="6.20061">
        <ele>1346.463867</ele>
        <time>2011-08-04T09:09:39Z</time>
      </trkpt>
      <trkpt lat="44.37969" lon="6.20032">
        <ele>1346.944336</ele>
        <time>2011-08-04T09:09:51Z</time>
      </trkpt>
      <trkpt lat="44.37966" lon="6.20025">
        <ele>1346.463867</ele>
        <time>2011-08-04T09:09:53Z</time>
      </trkpt>
      <trkpt lat="44.37962" lon="6.20018">
        <ele>1346.944336</ele>
        <time>2011-08-04T09:09:56Z</time>
      </trkpt>
      <trkpt lat="44.37944" lon="6.19984">
        <ele>1346.944336</ele>
        <time>2011-08-04T09:10:07Z</time>
      </trkpt>
      <trkpt lat="44.37938" lon="6.19936">
        <ele>1347.425049</ele>
        <time>2011-08-04T09:10:20Z</time>
      </trkpt>
      <trkpt lat="44.37909" lon="6.19894">
        <ele>1348.866943</ele>
        <time>2011-08-04T09:10:37Z</time>
      </trkpt>
      <trkpt lat="44.37899" lon="6.19886">
        <ele>1349.347656</ele>
        <time>2011-08-04T09:10:48Z</time>
      </trkpt>
      <trkpt lat="44.37892" lon="6.19887">
        <ele>1349.828369</ele>
        <time>2011-08-04T09:10:53Z</time>
      </trkpt>
      <trkpt lat="44.37892" lon="6.1989">
        <ele>1350.309082</ele>
        <time>2011-08-04T09:11:14Z</time>
      </trkpt>
      <trkpt lat="44.37893" lon="6.19889">
        <ele>1349.347656</ele>
        <time>2011-08-04T09:11:29Z</time>
      </trkpt>
      <trkpt lat="44.37893" lon="6.19889">
        <ele>1351.750977</ele>
        <time>2011-08-04T09:11:31Z</time>
      </trkpt>
      <trkpt lat="44.37893" lon="6.19889">
        <ele>1350.309082</ele>
        <time>2011-08-04T09:11:33Z</time>
      </trkpt>
      <trkpt lat="44.37893" lon="6.19889">
        <ele>1351.750977</ele>
        <time>2011-08-04T09:12:57Z</time>
      </trkpt>
      <trkpt lat="44.37893" lon="6.1989">
        <ele>1350.789551</ele>
        <time>2011-08-04T09:13:30Z</time>
      </trkpt>
      <trkpt lat="44.37909" lon="6.19909">
        <ele>1351.750977</ele>
        <time>2011-08-04T09:13:44Z</time>
      </trkpt>
      <trkpt lat="44.37923" lon="6.19945">
        <ele>1353.673584</ele>
        <time>2011-08-04T09:14:07Z</time>
      </trkpt>
      <trkpt lat="44.37922" lon="6.19962">
        <ele>1355.115479</ele>
        <time>2011-08-04T09:14:18Z</time>
      </trkpt>
      <trkpt lat="44.37926" lon="6.19989">
        <ele>1357.519043</ele>
        <time>2011-08-04T09:14:36Z</time>
      </trkpt>
      <trkpt lat="44.37926" lon="6.19991">
        <ele>1357.519043</ele>
        <time>2011-08-04T09:14:37Z</time>
      </trkpt>
      <trkpt lat="44.37931" lon="6.20018">
        <ele>1360.402832</ele>
        <time>2011-08-04T09:14:54Z</time>
      </trkpt>
      <trkpt lat="44.37935" lon="6.20048">
        <ele>1362.325439</ele>
        <time>2011-08-04T09:15:10Z</time>
      </trkpt>
      <trkpt lat="44.37936" lon="6.20051">
        <ele>1361.844971</ele>
        <time>2011-08-04T09:15:12Z</time>
      </trkpt>
      <trkpt lat="44.37934" lon="6.20083">
        <ele>1365.209473</ele>
        <time>2011-08-04T09:15:31Z</time>
      </trkpt>
      <trkpt lat="44.37931" lon="6.20095">
        <ele>1366.170654</ele>
        <time>2011-08-04T09:15:39Z</time>
      </trkpt>
      <trkpt lat="44.37925" lon="6.20125">
        <ele>1369.054688</ele>
        <time>2011-08-04T09:15:58Z</time>
      </trkpt>
      <trkpt lat="44.37925" lon="6.20126">
        <ele>1369.054688</ele>
        <time>2011-08-04T09:15:59Z</time>
      </trkpt>
      <trkpt lat="44.37922" lon="6.20132">
        <ele>1370.015869</ele>
        <time>2011-08-04T09:16:04Z</time>
      </trkpt>
      <trkpt lat="44.37915" lon="6.20149">
        <ele>1371.457764</ele>
        <time>2011-08-04T09:16:16Z</time>
      </trkpt>
      <trkpt lat="44.3791" lon="6.20161">
        <ele>1372.900146</ele>
        <time>2011-08-04T09:16:24Z</time>
      </trkpt>
      <trkpt lat="44.37894" lon="6.20186">
        <ele>1375.783936</ele>
        <time>2011-08-04T09:16:45Z</time>
      </trkpt>
      <trkpt lat="44.37881" lon="6.20213">
        <ele>1378.187256</ele>
        <time>2011-08-04T09:17:05Z</time>
      </trkpt>
      <trkpt lat="44.3788" lon="6.20241">
        <ele>1380.590576</ele>
        <time>2011-08-04T09:17:20Z</time>
      </trkpt>
      <trkpt lat="44.37877" lon="6.20262">
        <ele>1382.032471</ele>
        <time>2011-08-04T09:17:34Z</time>
      </trkpt>
      <trkpt lat="44.37876" lon="6.20283">
        <ele>1384.435791</ele>
        <time>2011-08-04T09:17:47Z</time>
      </trkpt>
      <trkpt lat="44.37881" lon="6.20311">
        <ele>1385.877686</ele>
        <time>2011-08-04T09:18:03Z</time>
      </trkpt>
      <trkpt lat="44.3788" lon="6.20314">
        <ele>1386.358398</ele>
        <time>2011-08-04T09:18:05Z</time>
      </trkpt>
      <trkpt lat="44.37883" lon="6.20335">
        <ele>1388.28125</ele>
        <time>2011-08-04T09:18:18Z</time>
      </trkpt>
      <trkpt lat="44.37887" lon="6.20365">
        <ele>1391.165039</ele>
        <time>2011-08-04T09:18:37Z</time>
      </trkpt>
      <trkpt lat="44.37884" lon="6.20376">
        <ele>1392.126465</ele>
        <time>2011-08-04T09:18:45Z</time>
      </trkpt>
      <trkpt lat="44.37882" lon="6.2041">
        <ele>1394.529541</ele>
        <time>2011-08-04T09:19:05Z</time>
      </trkpt>
      <trkpt lat="44.37892" lon="6.20424">
        <ele>1395.490967</ele>
        <time>2011-08-04T09:19:16Z</time>
      </trkpt>
      <trkpt lat="44.37904" lon="6.20451">
        <ele>1397.894287</ele>
        <time>2011-08-04T09:19:35Z</time>
      </trkpt>
      <trkpt lat="44.37908" lon="6.2046">
        <ele>1399.336182</ele>
        <time>2011-08-04T09:19:41Z</time>
      </trkpt>
      <trkpt lat="44.37913" lon="6.20479">
        <ele>1400.778076</ele>
        <time>2011-08-04T09:19:53Z</time>
      </trkpt>
      <trkpt lat="44.37913" lon="6.20514">
        <ele>1403.662109</ele>
        <time>2011-08-04T09:20:15Z</time>
      </trkpt>
      <trkpt lat="44.37915" lon="6.20548">
        <ele>1407.026855</ele>
        <time>2011-08-04T09:20:37Z</time>
      </trkpt>
      <trkpt lat="44.37914" lon="6.20575">
        <ele>1408.949463</ele>
        <time>2011-08-04T09:20:53Z</time>
      </trkpt>
      <trkpt lat="44.37912" lon="6.2059">
        <ele>1410.87207</ele>
        <time>2011-08-04T09:21:04Z</time>
      </trkpt>
      <trkpt lat="44.37907" lon="6.2061">
        <ele>1412.313965</ele>
        <time>2011-08-04T09:21:18Z</time>
      </trkpt>
      <trkpt lat="44.37908" lon="6.2064">
        <ele>1413.755859</ele>
        <time>2011-08-04T09:21:35Z</time>
      </trkpt>
      <trkpt lat="44.37922" lon="6.20662">
        <ele>1417.120605</ele>
        <time>2011-08-04T09:21:53Z</time>
      </trkpt>
      <trkpt lat="44.37924" lon="6.20666">
        <ele>1416.639893</ele>
        <time>2011-08-04T09:21:56Z</time>
      </trkpt>
      <trkpt lat="44.37929" lon="6.20693">
        <ele>1419.523926</ele>
        <time>2011-08-04T09:22:14Z</time>
      </trkpt>
      <trkpt lat="44.37927" lon="6.20713">
        <ele>1421.446533</ele>
        <time>2011-08-04T09:22:27Z</time>
      </trkpt>
      <trkpt lat="44.37936" lon="6.20729">
        <ele>1423.369385</ele>
        <time>2011-08-04T09:22:40Z</time>
      </trkpt>
      <trkpt lat="44.37941" lon="6.20738">
        <ele>1423.849854</ele>
        <time>2011-08-04T09:22:47Z</time>
      </trkpt>
      <trkpt lat="44.37957" lon="6.20765">
        <ele>1425.291748</ele>
        <time>2011-08-04T09:23:07Z</time>
      </trkpt>
      <trkpt lat="44.37962" lon="6.20808">
        <ele>1427.2146</ele>
        <time>2011-08-04T09:23:29Z</time>
      </trkpt>
      <trkpt lat="44.37967" lon="6.20855">
        <ele>1429.136963</ele>
        <time>2011-08-04T09:23:50Z</time>
      </trkpt>
      <trkpt lat="44.37971" lon="6.20894">
        <ele>1430.098389</ele>
        <time>2011-08-04T09:24:08Z</time>
      </trkpt>
      <trkpt lat="44.37986" lon="6.20931">
        <ele>1431.059814</ele>
        <time>2011-08-04T09:24:26Z</time>
      </trkpt>
      <trkpt lat="44.38008" lon="6.20964">
        <ele>1432.501709</ele>
        <time>2011-08-04T09:24:45Z</time>
      </trkpt>
      <trkpt lat="44.3802" lon="6.21001">
        <ele>1433.462891</ele>
        <time>2011-08-04T09:25:01Z</time>
      </trkpt>
      <trkpt lat="44.38027" lon="6.21053">
        <ele>1434.424316</ele>
        <time>2011-08-04T09:25:22Z</time>
      </trkpt>
      <trkpt lat="44.38044" lon="6.21101">
        <ele>1435.866211</ele>
        <time>2011-08-04T09:25:41Z</time>
      </trkpt>
      <trkpt lat="44.38063" lon="6.21141">
        <ele>1437.30835</ele>
        <time>2011-08-04T09:25:57Z</time>
      </trkpt>
      <trkpt lat="44.38079" lon="6.21173">
        <ele>1438.269775</ele>
        <time>2011-08-04T09:26:13Z</time>
      </trkpt>
      <trkpt lat="44.3808" lon="6.21175">
        <ele>1438.269775</ele>
        <time>2011-08-04T09:26:14Z</time>
      </trkpt>
      <trkpt lat="44.38081" lon="6.21179">
        <ele>1438.750488</ele>
        <time>2011-08-04T09:26:16Z</time>
      </trkpt>
      <trkpt lat="44.38092" lon="6.21208">
        <ele>1439.230957</ele>
        <time>2011-08-04T09:26:32Z</time>
      </trkpt>
      <trkpt lat="44.38109" lon="6.21226">
        <ele>1440.192383</ele>
        <time>2011-08-04T09:26:48Z</time>
      </trkpt>
      <trkpt lat="44.38115" lon="6.21227">
        <ele>1440.192383</ele>
        <time>2011-08-04T09:27:01Z</time>
      </trkpt>
      <trkpt lat="44.38115" lon="6.21227">
        <ele>1440.672852</ele>
        <time>2011-08-04T09:27:24Z</time>
      </trkpt>
      <trkpt lat="44.38115" lon="6.21228">
        <ele>1442.11499</ele>
        <time>2011-08-04T09:27:41Z</time>
      </trkpt>
      <trkpt lat="44.38112" lon="6.21228">
        <ele>1440.672852</ele>
        <time>2011-08-04T09:27:57Z</time>
      </trkpt>
      <trkpt lat="44.38111" lon="6.21227">
        <ele>1441.153564</ele>
        <time>2011-08-04T09:28:06Z</time>
      </trkpt>
      <trkpt lat="44.38102" lon="6.21223">
        <ele>1440.672852</ele>
        <time>2011-08-04T09:28:13Z</time>
      </trkpt>
      <trkpt lat="44.38079" lon="6.21216">
        <ele>1443.076172</ele>
        <time>2011-08-04T09:28:30Z</time>
      </trkpt>
      <trkpt lat="44.38055" lon="6.21183">
        <ele>1445.479492</ele>
        <time>2011-08-04T09:28:57Z</time>
      </trkpt>
      <trkpt lat="44.38034" lon="6.2117">
        <ele>1448.363281</ele>
        <time>2011-08-04T09:29:17Z</time>
      </trkpt>
      <trkpt lat="44.38021" lon="6.21162">
        <ele>1450.766602</ele>
        <time>2011-08-04T09:29:35Z</time>
      </trkpt>
      <trkpt lat="44.38021" lon="6.21163">
        <ele>1451.247314</ele>
        <time>2011-08-04T09:29:41Z</time>
      </trkpt>
      <trkpt lat="44.38002" lon="6.21147">
        <ele>1454.131592</ele>
        <time>2011-08-04T09:30:01Z</time>
      </trkpt>
      <trkpt lat="44.37989" lon="6.21137">
        <ele>1456.053955</ele>
        <time>2011-08-04T09:30:13Z</time>
      </trkpt>
      <trkpt lat="44.37974" lon="6.21119">
        <ele>1457.976807</ele>
        <time>2011-08-04T09:30:30Z</time>
      </trkpt>
      <trkpt lat="44.37957" lon="6.21086">
        <ele>1462.30249</ele>
        <time>2011-08-04T09:30:57Z</time>
      </trkpt>
      <trkpt lat="44.3794" lon="6.21063">
        <ele>1465.667236</ele>
        <time>2011-08-04T09:31:18Z</time>
      </trkpt>
      <trkpt lat="44.37938" lon="6.21062">
        <ele>1465.667236</ele>
        <time>2011-08-04T09:31:20Z</time>
      </trkpt>
      <trkpt lat="44.37923" lon="6.21049">
        <ele>1468.070557</ele>
        <time>2011-08-04T09:31:36Z</time>
      </trkpt>
      <trkpt lat="44.37902" lon="6.21035">
        <ele>1470.95459</ele>
        <time>2011-08-04T09:31:58Z</time>
      </trkpt>
      <trkpt lat="44.37892" lon="6.21024">
        <ele>1473.35791</ele>
        <time>2011-08-04T09:32:11Z</time>
      </trkpt>
      <trkpt lat="44.37872" lon="6.20994">
        <ele>1476.241699</ele>
        <time>2011-08-04T09:32:34Z</time>
      </trkpt>
      <trkpt lat="44.37861" lon="6.20971">
        <ele>1478.64502</ele>
        <time>2011-08-04T09:32:54Z</time>
      </trkpt>
      <trkpt lat="44.37845" lon="6.20948">
        <ele>1481.04834</ele>
        <time>2011-08-04T09:33:13Z</time>
      </trkpt>
      <trkpt lat="44.37839" lon="6.20936">
        <ele>1482.490234</ele>
        <time>2011-08-04T09:33:23Z</time>
      </trkpt>
      <trkpt lat="44.37827" lon="6.2091">
        <ele>1484.893799</ele>
        <time>2011-08-04T09:33:41Z</time>
      </trkpt>
      <trkpt lat="44.37825" lon="6.20909">
        <ele>1484.893799</ele>
        <time>2011-08-04T09:33:43Z</time>
      </trkpt>
      <trkpt lat="44.37823" lon="6.20905">
        <ele>1485.85498</ele>
        <time>2011-08-04T09:33:47Z</time>
      </trkpt>
      <trkpt lat="44.37816" lon="6.2089">
        <ele>1487.296875</ele>
        <time>2011-08-04T09:33:59Z</time>
      </trkpt>
      <trkpt lat="44.3781" lon="6.20883">
        <ele>1488.258301</ele>
        <time>2011-08-04T09:34:06Z</time>
      </trkpt>
      <trkpt lat="44.37804" lon="6.20871">
        <ele>1489.219482</ele>
        <time>2011-08-04T09:34:16Z</time>
      </trkpt>
      <trkpt lat="44.37798" lon="6.20848">
        <ele>1491.622803</ele>
        <time>2011-08-04T09:34:32Z</time>
      </trkpt>
      <trkpt lat="44.37796" lon="6.20841">
        <ele>1492.103516</ele>
        <time>2011-08-04T09:34:36Z</time>
      </trkpt>
      <trkpt lat="44.37785" lon="6.20821">
        <ele>1494.026123</ele>
        <time>2011-08-04T09:34:52Z</time>
      </trkpt>
      <trkpt lat="44.37773" lon="6.20806">
        <ele>1495.94873</ele>
        <time>2011-08-04T09:35:06Z</time>
      </trkpt>
      <trkpt lat="44.37763" lon="6.20788">
        <ele>1498.351807</ele>
        <time>2011-08-04T09:35:21Z</time>
      </trkpt>
      <trkpt lat="44.37763" lon="6.20787">
        <ele>1498.351807</ele>
        <time>2011-08-04T09:35:22Z</time>
      </trkpt>
      <trkpt lat="44.37762" lon="6.2078">
        <ele>1499.313232</ele>
        <time>2011-08-04T09:35:27Z</time>
      </trkpt>
      <trkpt lat="44.3775" lon="6.20755">
        <ele>1502.197266</ele>
        <time>2011-08-04T09:35:48Z</time>
      </trkpt>
      <trkpt lat="44.3774" lon="6.20739">
        <ele>1504.120117</ele>
        <time>2011-08-04T09:36:04Z</time>
      </trkpt>
      <trkpt lat="44.37728" lon="6.20718">
        <ele>1506.04248</ele>
        <time>2011-08-04T09:36:21Z</time>
      </trkpt>
      <trkpt lat="44.37727" lon="6.20717">
        <ele>1506.04248</ele>
        <time>2011-08-04T09:36:22Z</time>
      </trkpt>
      <trkpt lat="44.37725" lon="6.20712">
        <ele>1506.523193</ele>
        <time>2011-08-04T09:36:25Z</time>
      </trkpt>
      <trkpt lat="44.37718" lon="6.20687">
        <ele>1508.445801</ele>
        <time>2011-08-04T09:36:41Z</time>
      </trkpt>
      <trkpt lat="44.37712" lon="6.20683">
        <ele>1509.407227</ele>
        <time>2011-08-04T09:36:48Z</time>
      </trkpt>
      <trkpt lat="44.37709" lon="6.20688">
        <ele>1509.407227</ele>
        <time>2011-08-04T09:36:52Z</time>
      </trkpt>
      <trkpt lat="44.37709" lon="6.20709">
        <ele>1511.329834</ele>
        <time>2011-08-04T09:37:05Z</time>
      </trkpt>
      <trkpt lat="44.37712" lon="6.20735">
        <ele>1513.252441</ele>
        <time>2011-08-04T09:37:22Z</time>
      </trkpt>
      <trkpt lat="44.3771" lon="6.20755">
        <ele>1516.617188</ele>
        <time>2011-08-04T09:37:35Z</time>
      </trkpt>
      <trkpt lat="44.37708" lon="6.20779">
        <ele>1519.020508</ele>
        <time>2011-08-04T09:37:51Z</time>
      </trkpt>
      <trkpt lat="44.37707" lon="6.20786">
        <ele>1520.462402</ele>
        <time>2011-08-04T09:38:05Z</time>
      </trkpt>
      <trkpt lat="44.37706" lon="6.20798">
        <ele>1521.904297</ele>
        <time>2011-08-04T09:38:23Z</time>
      </trkpt>
      <trkpt lat="44.37706" lon="6.20811">
        <ele>1522.38501</ele>
        <time>2011-08-04T09:38:32Z</time>
      </trkpt>
      <trkpt lat="44.37708" lon="6.20834">
        <ele>1525.268799</ele>
        <time>2011-08-04T09:38:48Z</time>
      </trkpt>
      <trkpt lat="44.377" lon="6.20865">
        <ele>1528.152832</ele>
        <time>2011-08-04T09:39:10Z</time>
      </trkpt>
      <trkpt lat="44.37693" lon="6.2089">
        <ele>1531.036865</ele>
        <time>2011-08-04T09:39:28Z</time>
      </trkpt>
      <trkpt lat="44.37688" lon="6.20925">
        <ele>1533.440186</ele>
        <time>2011-08-04T09:39:51Z</time>
      </trkpt>
      <trkpt lat="44.37684" lon="6.20956">
        <ele>1536.804688</ele>
        <time>2011-08-04T09:40:13Z</time>
      </trkpt>
      <trkpt lat="44.37676" lon="6.20979">
        <ele>1539.208008</ele>
        <time>2011-08-04T09:40:32Z</time>
      </trkpt>
      <trkpt lat="44.37675" lon="6.21009">
        <ele>1541.130615</ele>
        <time>2011-08-04T09:40:49Z</time>
      </trkpt>
      <trkpt lat="44.37674" lon="6.21031">
        <ele>1542.572754</ele>
        <time>2011-08-04T09:41:04Z</time>
      </trkpt>
      <trkpt lat="44.37676" lon="6.21072">
        <ele>1543.533936</ele>
        <time>2011-08-04T09:41:25Z</time>
      </trkpt>
      <trkpt lat="44.37674" lon="6.21076">
        <ele>1544.014648</ele>
        <time>2011-08-04T09:41:40Z</time>
      </trkpt>
      <trkpt lat="44.37673" lon="6.21075">
        <ele>1544.97583</ele>
        <time>2011-08-04T09:41:55Z</time>
      </trkpt>
      <trkpt lat="44.37674" lon="6.21074">
        <ele>1544.495117</ele>
        <time>2011-08-04T09:42:53Z</time>
      </trkpt>
      <trkpt lat="44.37674" lon="6.21074">
        <ele>1544.495117</ele>
        <time>2011-08-04T09:43:26Z</time>
      </trkpt>
      <trkpt lat="44.37671" lon="6.2107">
        <ele>1544.495117</ele>
        <time>2011-08-04T09:43:38Z</time>
      </trkpt>
      <trkpt lat="44.37666" lon="6.21059">
        <ele>1545.937256</ele>
        <time>2011-08-04T09:43:55Z</time>
      </trkpt>
      <trkpt lat="44.3766" lon="6.21044">
        <ele>1546.898438</ele>
        <time>2011-08-04T09:44:05Z</time>
      </trkpt>
      <trkpt lat="44.37655" lon="6.21031">
        <ele>1547.37915</ele>
        <time>2011-08-04T09:44:12Z</time>
      </trkpt>
      <trkpt lat="44.37645" lon="6.21">
        <ele>1548.821289</ele>
        <time>2011-08-04T09:44:29Z</time>
      </trkpt>
      <trkpt lat="44.37617" lon="6.20979">
        <ele>1550.263428</ele>
        <time>2011-08-04T09:44:51Z</time>
      </trkpt>
      <trkpt lat="44.37591" lon="6.20968">
        <ele>1552.666504</ele>
        <time>2011-08-04T09:45:09Z</time>
      </trkpt>
      <trkpt lat="44.37566" lon="6.20948">
        <ele>1555.069824</ele>
        <time>2011-08-04T09:45:29Z</time>
      </trkpt>
      <trkpt lat="44.37554" lon="6.2091">
        <ele>1556.992432</ele>
        <time>2011-08-04T09:45:50Z</time>
      </trkpt>
      <trkpt lat="44.37555" lon="6.20881">
        <ele>1559.395752</ele>
        <time>2011-08-04T09:46:08Z</time>
      </trkpt>
      <trkpt lat="44.37544" lon="6.20875">
        <ele>1560.837646</ele>
        <time>2011-08-04T09:46:18Z</time>
      </trkpt>
      <trkpt lat="44.37517" lon="6.20863">
        <ele>1562.760254</ele>
        <time>2011-08-04T09:46:40Z</time>
      </trkpt>
      <trkpt lat="44.375" lon="6.20832">
        <ele>1563.721436</ele>
        <time>2011-08-04T09:46:57Z</time>
      </trkpt>
      <trkpt lat="44.37482" lon="6.20793">
        <ele>1563.240967</ele>
        <time>2011-08-04T09:47:15Z</time>
      </trkpt>
      <trkpt lat="44.37478" lon="6.20786">
        <ele>1562.760254</ele>
        <time>2011-08-04T09:47:32Z</time>
      </trkpt>
      <trkpt lat="44.37478" lon="6.20786">
        <ele>1562.760254</ele>
        <time>2011-08-04T09:48:36Z</time>
      </trkpt>
      <trkpt lat="44.37475" lon="6.20774">
        <ele>1562.279541</ele>
        <time>2011-08-04T09:48:50Z</time>
      </trkpt>
      <trkpt lat="44.37475" lon="6.20772">
        <ele>1562.760254</ele>
        <time>2011-08-04T09:49:16Z</time>
      </trkpt>
      <trkpt lat="44.37476" lon="6.20747">
        <ele>1561.799072</ele>
        <time>2011-08-04T09:49:30Z</time>
      </trkpt>
      <trkpt lat="44.37469" lon="6.20689">
        <ele>1559.876221</ele>
        <time>2011-08-04T09:49:44Z</time>
      </trkpt>
      <trkpt lat="44.37466" lon="6.20666">
        <ele>1558.915039</ele>
        <time>2011-08-04T09:50:00Z</time>
      </trkpt>
      <trkpt lat="44.37465" lon="6.20665">
        <ele>1558.434326</ele>
        <time>2011-08-04T09:50:43Z</time>
      </trkpt>
      <trkpt lat="44.37465" lon="6.20665">
        <ele>1559.876221</ele>
        <time>2011-08-04T09:51:21Z</time>
      </trkpt>
      <trkpt lat="44.37465" lon="6.20665">
        <ele>1558.434326</ele>
        <time>2011-08-04T09:51:23Z</time>
      </trkpt>
      <trkpt lat="44.37465" lon="6.20665">
        <ele>1559.395752</ele>
        <time>2011-08-04T09:52:16Z</time>
      </trkpt>
      <trkpt lat="44.37465" lon="6.20665">
        <ele>1559.395752</ele>
        <time>2011-08-04T09:52:56Z</time>
      </trkpt>
      <trkpt lat="44.37465" lon="6.20666">
        <ele>1561.799072</ele>
        <time>2011-08-04T09:54:19Z</time>
      </trkpt>
      <trkpt lat="44.37465" lon="6.20666">
        <ele>1560.356934</ele>
        <time>2011-08-04T09:54:24Z</time>
      </trkpt>
      <trkpt lat="44.37465" lon="6.20661">
        <ele>1560.356934</ele>
        <time>2011-08-04T09:54:27Z</time>
      </trkpt>
      <trkpt lat="44.37463" lon="6.20603">
        <ele>1558.434326</ele>
        <time>2011-08-04T09:54:41Z</time>
      </trkpt>
      <trkpt lat="44.37451" lon="6.2053">
        <ele>1556.031006</ele>
        <time>2011-08-04T09:54:56Z</time>
      </trkpt>
      <trkpt lat="44.37453" lon="6.20514">
        <ele>1553.147217</ele>
        <time>2011-08-04T09:55:00Z</time>
      </trkpt>
      <trkpt lat="44.37457" lon="6.2048">
        <ele>1551.705322</ele>
        <time>2011-08-04T09:55:08Z</time>
      </trkpt>
      <trkpt lat="44.3746" lon="6.20463">
        <ele>1549.782715</ele>
        <time>2011-08-04T09:55:12Z</time>
      </trkpt>
      <trkpt lat="44.37463" lon="6.20444">
        <ele>1547.37915</ele>
        <time>2011-08-04T09:55:17Z</time>
      </trkpt>
      <trkpt lat="44.37467" lon="6.20422">
        <ele>1544.97583</ele>
        <time>2011-08-04T09:55:23Z</time>
      </trkpt>
      <trkpt lat="44.3747" lon="6.20406">
        <ele>1542.092041</ele>
        <time>2011-08-04T09:55:28Z</time>
      </trkpt>
      <trkpt lat="44.37474" lon="6.20364">
        <ele>1538.727539</ele>
        <time>2011-08-04T09:55:39Z</time>
      </trkpt>
      <trkpt lat="44.37473" lon="6.20342">
        <ele>1537.2854</ele>
        <time>2011-08-04T09:55:45Z</time>
      </trkpt>
      <trkpt lat="44.37471" lon="6.20318">
        <ele>1533.440186</ele>
        <time>2011-08-04T09:55:51Z</time>
      </trkpt>
      <trkpt lat="44.3747" lon="6.20314">
        <ele>1533.440186</ele>
        <time>2011-08-04T09:55:52Z</time>
      </trkpt>
      <trkpt lat="44.37467" lon="6.20287">
        <ele>1530.556152</ele>
        <time>2011-08-04T09:55:59Z</time>
      </trkpt>
      <trkpt lat="44.37466" lon="6.2028">
        <ele>1529.114014</ele>
        <time>2011-08-04T09:56:01Z</time>
      </trkpt>
      <trkpt lat="44.37458" lon="6.20249">
        <ele>1526.230225</ele>
        <time>2011-08-04T09:56:10Z</time>
      </trkpt>
      <trkpt lat="44.37453" lon="6.2023">
        <ele>1523.346436</ele>
        <time>2011-08-04T09:56:16Z</time>
      </trkpt>
      <trkpt lat="44.37448" lon="6.20204">
        <ele>1519.981689</ele>
        <time>2011-08-04T09:56:23Z</time>
      </trkpt>
      <trkpt lat="44.37445" lon="6.20184">
        <ele>1518.539795</ele>
        <time>2011-08-04T09:56:29Z</time>
      </trkpt>
      <trkpt lat="44.37441" lon="6.20165">
        <ele>1515.175049</ele>
        <time>2011-08-04T09:56:35Z</time>
      </trkpt>
      <trkpt lat="44.3744" lon="6.20161">
        <ele>1515.175049</ele>
        <time>2011-08-04T09:56:36Z</time>
      </trkpt>
      <trkpt lat="44.37434" lon="6.20129">
        <ele>1511.810547</ele>
        <time>2011-08-04T09:56:44Z</time>
      </trkpt>
      <trkpt lat="44.37444" lon="6.20081">
        <ele>1510.849121</ele>
        <time>2011-08-04T09:56:55Z</time>
      </trkpt>
      <trkpt lat="44.3746" lon="6.20046">
        <ele>1510.849121</ele>
        <time>2011-08-04T09:57:04Z</time>
      </trkpt>
      <trkpt lat="44.37462" lon="6.20029">
        <ele>1509.887695</ele>
        <time>2011-08-04T09:57:07Z</time>
      </trkpt>
      <trkpt lat="44.37469" lon="6.20009">
        <ele>1507.965332</ele>
        <time>2011-08-04T09:57:11Z</time>
      </trkpt>
      <trkpt lat="44.37473" lon="6.2">
        <ele>1507.484619</ele>
        <time>2011-08-04T09:57:13Z</time>
      </trkpt>
      <trkpt lat="44.37475" lon="6.19995">
        <ele>1507.003906</ele>
        <time>2011-08-04T09:57:14Z</time>
      </trkpt>
      <trkpt lat="44.37477" lon="6.19971">
        <ele>1505.562012</ele>
        <time>2011-08-04T09:57:18Z</time>
      </trkpt>
      <trkpt lat="44.37478" lon="6.1996">
        <ele>1504.600586</ele>
        <time>2011-08-04T09:57:20Z</time>
      </trkpt>
      <trkpt lat="44.37479" lon="6.19936">
        <ele>1502.677979</ele>
        <time>2011-08-04T09:57:24Z</time>
      </trkpt>
      <trkpt lat="44.37479" lon="6.19917">
        <ele>1501.236084</ele>
        <time>2011-08-04T09:57:27Z</time>
      </trkpt>
      <trkpt lat="44.37479" lon="6.19904">
        <ele>1499.313232</ele>
        <time>2011-08-04T09:57:29Z</time>
      </trkpt>
      <trkpt lat="44.37479" lon="6.19877">
        <ele>1495.468018</ele>
        <time>2011-08-04T09:57:35Z</time>
      </trkpt>
      <trkpt lat="44.37479" lon="6.19875">
        <ele>1495.468018</ele>
        <time>2011-08-04T09:57:36Z</time>
      </trkpt>
      <trkpt lat="44.37479" lon="6.1987">
        <ele>1494.506592</ele>
        <time>2011-08-04T09:57:48Z</time>
      </trkpt>
      <trkpt lat="44.37479" lon="6.1987">
        <ele>1494.026123</ele>
        <time>2011-08-04T09:58:04Z</time>
      </trkpt>
      <trkpt lat="44.37479" lon="6.1987">
        <ele>1493.54541</ele>
        <time>2011-08-04T09:58:16Z</time>
      </trkpt>
      <trkpt lat="44.37473" lon="6.19827">
        <ele>1490.180908</ele>
        <time>2011-08-04T09:58:26Z</time>
      </trkpt>
      <trkpt lat="44.37471" lon="6.19823">
        <ele>1490.180908</ele>
        <time>2011-08-04T09:58:27Z</time>
      </trkpt>
      <trkpt lat="44.37444" lon="6.19773">
        <ele>1492.103516</ele>
        <time>2011-08-04T09:58:41Z</time>
      </trkpt>
      <trkpt lat="44.37408" lon="6.19723">
        <ele>1492.584229</ele>
        <time>2011-08-04T09:59:01Z</time>
      </trkpt>
      <trkpt lat="44.37376" lon="6.19689">
        <ele>1493.54541</ele>
        <time>2011-08-04T09:59:17Z</time>
      </trkpt>
      <trkpt lat="44.37348" lon="6.19639">
        <ele>1494.506592</ele>
        <time>2011-08-04T09:59:34Z</time>
      </trkpt>
      <trkpt lat="44.37329" lon="6.19578">
        <ele>1494.506592</ele>
        <time>2011-08-04T09:59:50Z</time>
      </trkpt>
      <trkpt lat="44.37312" lon="6.19521">
        <ele>1493.54541</ele>
        <time>2011-08-04T10:00:01Z</time>
      </trkpt>
      <trkpt lat="44.37305" lon="6.19492">
        <ele>1493.064697</ele>
        <time>2011-08-04T10:00:06Z</time>
      </trkpt>
      <trkpt lat="44.37297" lon="6.19456">
        <ele>1492.103516</ele>
        <time>2011-08-04T10:00:11Z</time>
      </trkpt>
      <trkpt lat="44.37288" lon="6.19409">
        <ele>1491.14209</ele>
        <time>2011-08-04T10:00:19Z</time>
      </trkpt>
      <trkpt lat="44.37285" lon="6.1939">
        <ele>1490.661377</ele>
        <time>2011-08-04T10:00:22Z</time>
      </trkpt>
      <trkpt lat="44.37276" lon="6.19336">
        <ele>1489.700195</ele>
        <time>2011-08-04T10:00:34Z</time>
      </trkpt>
      <trkpt lat="44.37274" lon="6.1932">
        <ele>1487.777588</ele>
        <time>2011-08-04T10:00:39Z</time>
      </trkpt>
      <trkpt lat="44.37274" lon="6.19275">
        <ele>1484.893799</ele>
        <time>2011-08-04T10:00:50Z</time>
      </trkpt>
      <trkpt lat="44.37276" lon="6.19268">
        <ele>1483.932129</ele>
        <time>2011-08-04T10:00:52Z</time>
      </trkpt>
      <trkpt lat="44.37277" lon="6.19221">
        <ele>1480.086914</ele>
        <time>2011-08-04T10:01:03Z</time>
      </trkpt>
      <trkpt lat="44.37262" lon="6.19176">
        <ele>1476.241699</ele>
        <time>2011-08-04T10:01:14Z</time>
      </trkpt>
      <trkpt lat="44.37271" lon="6.19157">
        <ele>1475.760986</ele>
        <time>2011-08-04T10:01:20Z</time>
      </trkpt>
      <trkpt lat="44.37275" lon="6.1915">
        <ele>1475.280273</ele>
        <time>2011-08-04T10:01:24Z</time>
      </trkpt>
      <trkpt lat="44.37291" lon="6.19089">
        <ele>1473.838379</ele>
        <time>2011-08-04T10:01:38Z</time>
      </trkpt>
      <trkpt lat="44.37292" lon="6.19083">
        <ele>1473.838379</ele>
        <time>2011-08-04T10:01:39Z</time>
      </trkpt>
      <trkpt lat="44.37292" lon="6.19064">
        <ele>1473.35791</ele>
        <time>2011-08-04T10:01:42Z</time>
      </trkpt>
      <trkpt lat="44.37275" lon="6.18994">
        <ele>1472.877197</ele>
        <time>2011-08-04T10:01:56Z</time>
      </trkpt>
      <trkpt lat="44.37266" lon="6.18963">
        <ele>1471.435059</ele>
        <time>2011-08-04T10:02:04Z</time>
      </trkpt>
      <trkpt lat="44.37272" lon="6.18957">
        <ele>1470.95459</ele>
        <time>2011-08-04T10:02:07Z</time>
      </trkpt>
      <trkpt lat="44.37288" lon="6.18968">
        <ele>1469.512695</ele>
        <time>2011-08-04T10:02:14Z</time>
      </trkpt>
      <trkpt lat="44.37306" lon="6.18994">
        <ele>1466.628418</ele>
        <time>2011-08-04T10:02:21Z</time>
      </trkpt>
      <trkpt lat="44.37312" lon="6.19008">
        <ele>1465.667236</ele>
        <time>2011-08-04T10:02:24Z</time>
      </trkpt>
      <trkpt lat="44.37322" lon="6.19027">
        <ele>1463.263916</ele>
        <time>2011-08-04T10:02:28Z</time>
      </trkpt>
      <trkpt lat="44.37333" lon="6.19057">
        <ele>1460.860596</ele>
        <time>2011-08-04T10:02:34Z</time>
      </trkpt>
      <trkpt lat="44.37339" lon="6.191">
        <ele>1457.015381</ele>
        <time>2011-08-04T10:02:43Z</time>
      </trkpt>
      <trkpt lat="44.37355" lon="6.19133">
        <ele>1454.131592</ele>
        <time>2011-08-04T10:02:54Z</time>
      </trkpt>
      <trkpt lat="44.37366" lon="6.19124">
        <ele>1452.20874</ele>
        <time>2011-08-04T10:02:58Z</time>
      </trkpt>
      <trkpt lat="44.37384" lon="6.1911">
        <ele>1449.324707</ele>
        <time>2011-08-04T10:03:06Z</time>
      </trkpt>
      <trkpt lat="44.37412" lon="6.19091">
        <ele>1447.4021</ele>
        <time>2011-08-04T10:03:16Z</time>
      </trkpt>
      <trkpt lat="44.37415" lon="6.19087">
        <ele>1446.921387</ele>
        <time>2011-08-04T10:03:17Z</time>
      </trkpt>
      <trkpt lat="44.37425" lon="6.19068">
        <ele>1444.998779</ele>
        <time>2011-08-04T10:03:21Z</time>
      </trkpt>
      <trkpt lat="44.37451" lon="6.19043">
        <ele>1442.595703</ele>
        <time>2011-08-04T10:03:30Z</time>
      </trkpt>
      <trkpt lat="44.37456" lon="6.19037">
        <ele>1442.11499</ele>
        <time>2011-08-04T10:03:43Z</time>
      </trkpt>
      <trkpt lat="44.37457" lon="6.19035">
        <ele>1441.153564</ele>
        <time>2011-08-04T10:04:51Z</time>
      </trkpt>
      <trkpt lat="44.37457" lon="6.18989">
        <ele>1438.269775</ele>
        <time>2011-08-04T10:05:02Z</time>
      </trkpt>
      <trkpt lat="44.3746" lon="6.1894">
        <ele>1434.905029</ele>
        <time>2011-08-04T10:05:13Z</time>
      </trkpt>
      <trkpt lat="44.37461" lon="6.18928">
        <ele>1433.462891</ele>
        <time>2011-08-04T10:05:16Z</time>
      </trkpt>
      <trkpt lat="44.37464" lon="6.18893">
        <ele>1430.579102</ele>
        <time>2011-08-04T10:05:23Z</time>
      </trkpt>
      <trkpt lat="44.37464" lon="6.18887">
        <ele>1430.579102</ele>
        <time>2011-08-04T10:05:24Z</time>
      </trkpt>
      <trkpt lat="44.37466" lon="6.18853">
        <ele>1427.695068</ele>
        <time>2011-08-04T10:05:32Z</time>
      </trkpt>
      <trkpt lat="44.37464" lon="6.1882">
        <ele>1426.253174</ele>
        <time>2011-08-04T10:05:43Z</time>
      </trkpt>
      <trkpt lat="44.37464" lon="6.18778">
        <ele>1424.811279</ele>
        <time>2011-08-04T10:05:50Z</time>
      </trkpt>
      <trkpt lat="44.37454" lon="6.18719">
        <ele>1421.927246</ele>
        <time>2011-08-04T10:05:59Z</time>
      </trkpt>
      <trkpt lat="44.37438" lon="6.18679">
        <ele>1420.485352</ele>
        <time>2011-08-04T10:06:06Z</time>
      </trkpt>
      <trkpt lat="44.37432" lon="6.18653">
        <ele>1419.523926</ele>
        <time>2011-08-04T10:06:10Z</time>
      </trkpt>
      <trkpt lat="44.37431" lon="6.18577">
        <ele>1418.5625</ele>
        <time>2011-08-04T10:06:21Z</time>
      </trkpt>
      <trkpt lat="44.37432" lon="6.18532">
        <ele>1418.081787</ele>
        <time>2011-08-04T10:06:29Z</time>
      </trkpt>
      <trkpt lat="44.37429" lon="6.18474">
        <ele>1415.678711</ele>
        <time>2011-08-04T10:06:38Z</time>
      </trkpt>
      <trkpt lat="44.37434" lon="6.18424">
        <ele>1412.794678</ele>
        <time>2011-08-04T10:06:49Z</time>
      </trkpt>
      <trkpt lat="44.37421" lon="6.18383">
        <ele>1410.391357</ele>
        <time>2011-08-04T10:07:01Z</time>
      </trkpt>
      <trkpt lat="44.37415" lon="6.18354">
        <ele>1407.507568</ele>
        <time>2011-08-04T10:07:07Z</time>
      </trkpt>
      <trkpt lat="44.37414" lon="6.18349">
        <ele>1407.507568</ele>
        <time>2011-08-04T10:07:08Z</time>
      </trkpt>
      <trkpt lat="44.37412" lon="6.1832">
        <ele>1404.623535</ele>
        <time>2011-08-04T10:07:14Z</time>
      </trkpt>
      <trkpt lat="44.37412" lon="6.18306">
        <ele>1403.181396</ele>
        <time>2011-08-04T10:07:17Z</time>
      </trkpt>
      <trkpt lat="44.37411" lon="6.18278">
        <ele>1398.855469</ele>
        <time>2011-08-04T10:07:23Z</time>
      </trkpt>
      <trkpt lat="44.37411" lon="6.18273">
        <ele>1398.855469</ele>
        <time>2011-08-04T10:07:24Z</time>
      </trkpt>
      <trkpt lat="44.37414" lon="6.18241">
        <ele>1395.97168</ele>
        <time>2011-08-04T10:07:33Z</time>
      </trkpt>
      <trkpt lat="44.37423" lon="6.18256">
        <ele>1394.529541</ele>
        <time>2011-08-04T10:07:40Z</time>
      </trkpt>
      <trkpt lat="44.37426" lon="6.18281">
        <ele>1392.607178</ele>
        <time>2011-08-04T10:07:46Z</time>
      </trkpt>
      <trkpt lat="44.37432" lon="6.18296">
        <ele>1390.684326</ele>
        <time>2011-08-04T10:07:52Z</time>
      </trkpt>
      <trkpt lat="44.3744" lon="6.18291">
        <ele>1389.723145</ele>
        <time>2011-08-04T10:07:56Z</time>
      </trkpt>
      <trkpt lat="44.37447" lon="6.18282">
        <ele>1388.28125</ele>
        <time>2011-08-04T10:07:59Z</time>
      </trkpt>
      <trkpt lat="44.37462" lon="6.18264">
        <ele>1385.877686</ele>
        <time>2011-08-04T10:08:05Z</time>
      </trkpt>
      <trkpt lat="44.3746" lon="6.18229">
        <ele>1382.993652</ele>
        <time>2011-08-04T10:08:13Z</time>
      </trkpt>
      <trkpt lat="44.37457" lon="6.18211">
        <ele>1382.032471</ele>
        <time>2011-08-04T10:08:17Z</time>
      </trkpt>
      <trkpt lat="44.37461" lon="6.18184">
        <ele>1379.148438</ele>
        <time>2011-08-04T10:08:23Z</time>
      </trkpt>
      <trkpt lat="44.37479" lon="6.18141">
        <ele>1376.264648</ele>
        <time>2011-08-04T10:08:34Z</time>
      </trkpt>
      <trkpt lat="44.37481" lon="6.18131">
        <ele>1375.303223</ele>
        <time>2011-08-04T10:08:36Z</time>
      </trkpt>
      <trkpt lat="44.37498" lon="6.18088">
        <ele>1371.938477</ele>
        <time>2011-08-04T10:08:46Z</time>
      </trkpt>
      <trkpt lat="44.37511" lon="6.18044">
        <ele>1369.054688</ele>
        <time>2011-08-04T10:08:58Z</time>
      </trkpt>
      <trkpt lat="44.37519" lon="6.18016">
        <ele>1367.612549</ele>
        <time>2011-08-04T10:09:05Z</time>
      </trkpt>
      <trkpt lat="44.37532" lon="6.1802">
        <ele>1367.13208</ele>
        <time>2011-08-04T10:09:13Z</time>
      </trkpt>
      <trkpt lat="44.37545" lon="6.18094">
        <ele>1362.806152</ele>
        <time>2011-08-04T10:09:26Z</time>
      </trkpt>
      <trkpt lat="44.37546" lon="6.18099">
        <ele>1362.806152</ele>
        <time>2011-08-04T10:09:27Z</time>
      </trkpt>
      <trkpt lat="44.37555" lon="6.18146">
        <ele>1359.44165</ele>
        <time>2011-08-04T10:09:37Z</time>
      </trkpt>
      <trkpt lat="44.37576" lon="6.18152">
        <ele>1357.03833</ele>
        <time>2011-08-04T10:09:45Z</time>
      </trkpt>
      <trkpt lat="44.37616" lon="6.18141">
        <ele>1355.115479</ele>
        <time>2011-08-04T10:09:58Z</time>
      </trkpt>
      <trkpt lat="44.3762" lon="6.1814">
        <ele>1354.634766</ele>
        <time>2011-08-04T10:10:08Z</time>
      </trkpt>
      <trkpt lat="44.3762" lon="6.1814">
        <ele>1354.154297</ele>
        <time>2011-08-04T10:10:09Z</time>
      </trkpt>
      <trkpt lat="44.37619" lon="6.18145">
        <ele>1354.154297</ele>
        <time>2011-08-04T10:10:20Z</time>
      </trkpt>
      <trkpt lat="44.37626" lon="6.18154">
        <ele>1354.154297</ele>
        <time>2011-08-04T10:10:39Z</time>
      </trkpt>
      <trkpt lat="44.37628" lon="6.18157">
        <ele>1353.673584</ele>
        <time>2011-08-04T10:10:40Z</time>
      </trkpt>
      <trkpt lat="44.3762" lon="6.1814">
        <ele>1352.712158</ele>
        <time>2011-08-04T10:10:45Z</time>
      </trkpt>
      <trkpt lat="44.37677" lon="6.18159">
        <ele>1355.115479</ele>
        <time>2011-08-04T10:11:05Z</time>
      </trkpt>
      <trkpt lat="44.37684" lon="6.18159">
        <ele>1354.634766</ele>
        <time>2011-08-04T10:11:22Z</time>
      </trkpt>
      <trkpt lat="44.37684" lon="6.18162">
        <ele>1354.634766</ele>
        <time>2011-08-04T10:11:46Z</time>
      </trkpt>
      <trkpt lat="44.37685" lon="6.1816">
        <ele>1354.634766</ele>
        <time>2011-08-04T10:12:25Z</time>
      </trkpt>
      <trkpt lat="44.37687" lon="6.18159">
        <ele>1354.154297</ele>
        <time>2011-08-04T10:13:02Z</time>
      </trkpt>
      <trkpt lat="44.37688" lon="6.1816">
        <ele>1353.673584</ele>
        <time>2011-08-04T10:13:21Z</time>
      </trkpt>
      <trkpt lat="44.37688" lon="6.18159">
        <ele>1353.673584</ele>
        <time>2011-08-04T10:13:34Z</time>
      </trkpt>
      <trkpt lat="44.37688" lon="6.1816">
        <ele>1352.231445</ele>
        <time>2011-08-04T10:13:46Z</time>
      </trkpt>
      <trkpt lat="44.37688" lon="6.18166">
        <ele>1353.192871</ele>
        <time>2011-08-04T10:14:03Z</time>
      </trkpt>
      <trkpt lat="44.37688" lon="6.18166">
        <ele>1353.192871</ele>
        <time>2011-08-04T10:14:20Z</time>
      </trkpt>
      <trkpt lat="44.377" lon="6.18183">
        <ele>1350.309082</ele>
        <time>2011-08-04T10:14:27Z</time>
      </trkpt>
      <trkpt lat="44.37729" lon="6.18203">
        <ele>1346.463867</ele>
        <time>2011-08-04T10:14:36Z</time>
      </trkpt>
      <trkpt lat="44.37751" lon="6.18224">
        <ele>1344.060547</ele>
        <time>2011-08-04T10:14:42Z</time>
      </trkpt>
      <trkpt lat="44.37775" lon="6.18233">
        <ele>1341.176514</ele>
        <time>2011-08-04T10:14:50Z</time>
      </trkpt>
      <trkpt lat="44.37777" lon="6.18233">
        <ele>1341.176514</ele>
        <time>2011-08-04T10:14:51Z</time>
      </trkpt>
      <trkpt lat="44.37782" lon="6.18232">
        <ele>1339.734375</ele>
        <time>2011-08-04T10:14:53Z</time>
      </trkpt>
      <trkpt lat="44.37788" lon="6.18228">
        <ele>1336.369873</ele>
        <time>2011-08-04T10:14:57Z</time>
      </trkpt>
      <trkpt lat="44.3779" lon="6.18227">
        <ele>1336.369873</ele>
        <time>2011-08-04T10:14:58Z</time>
      </trkpt>
      <trkpt lat="44.37794" lon="6.18224">
        <ele>1334.927979</ele>
        <time>2011-08-04T10:15:00Z</time>
      </trkpt>
      <trkpt lat="44.37802" lon="6.18219">
        <ele>1330.602051</ele>
        <time>2011-08-04T10:15:04Z</time>
      </trkpt>
      <trkpt lat="44.37805" lon="6.18217">
        <ele>1330.602051</ele>
        <time>2011-08-04T10:15:05Z</time>
      </trkpt>
      <trkpt lat="44.37811" lon="6.18214">
        <ele>1328.679443</ele>
        <time>2011-08-04T10:15:07Z</time>
      </trkpt>
      <trkpt lat="44.37837" lon="6.18199">
        <ele>1324.834229</ele>
        <time>2011-08-04T10:15:17Z</time>
      </trkpt>
      <trkpt lat="44.37846" lon="6.18193">
        <ele>1322.911377</ele>
        <time>2011-08-04T10:15:21Z</time>
      </trkpt>
      <trkpt lat="44.37855" lon="6.18189">
        <ele>1320.508057</ele>
        <time>2011-08-04T10:15:26Z</time>
      </trkpt>
      <trkpt lat="44.37877" lon="6.18194">
        <ele>1316.662842</ele>
        <time>2011-08-04T10:15:39Z</time>
      </trkpt>
      <trkpt lat="44.37898" lon="6.182">
        <ele>1313.29834</ele>
        <time>2011-08-04T10:15:48Z</time>
      </trkpt>
      <trkpt lat="44.37921" lon="6.18208">
        <ele>1309.453125</ele>
        <time>2011-08-04T10:16:01Z</time>
      </trkpt>
      <trkpt lat="44.37923" lon="6.18209">
        <ele>1309.453125</ele>
        <time>2011-08-04T10:16:02Z</time>
      </trkpt>
      <trkpt lat="44.37927" lon="6.18209">
        <ele>1308.01123</ele>
        <time>2011-08-04T10:16:05Z</time>
      </trkpt>
      <trkpt lat="44.37935" lon="6.18207">
        <ele>1305.607666</ele>
        <time>2011-08-04T10:16:10Z</time>
      </trkpt>
      <trkpt lat="44.37941" lon="6.18203">
        <ele>1303.685059</ele>
        <time>2011-08-04T10:16:14Z</time>
      </trkpt>
      <trkpt lat="44.37945" lon="6.182">
        <ele>1302.24292</ele>
        <time>2011-08-04T10:16:16Z</time>
      </trkpt>
      <trkpt lat="44.3795" lon="6.18195">
        <ele>1300.320557</ele>
        <time>2011-08-04T10:16:19Z</time>
      </trkpt>
      <trkpt lat="44.37956" lon="6.18187">
        <ele>1297.436523</ele>
        <time>2011-08-04T10:16:23Z</time>
      </trkpt>
      <trkpt lat="44.37961" lon="6.18185">
        <ele>1295.513916</ele>
        <time>2011-08-04T10:16:26Z</time>
      </trkpt>
      <trkpt lat="44.37963" lon="6.18181">
        <ele>1294.072021</ele>
        <time>2011-08-04T10:16:28Z</time>
      </trkpt>
      <trkpt lat="44.37972" lon="6.18173">
        <ele>1291.668457</ele>
        <time>2011-08-04T10:16:33Z</time>
      </trkpt>
      <trkpt lat="44.37983" lon="6.18174">
        <ele>1288.784668</ele>
        <time>2011-08-04T10:16:39Z</time>
      </trkpt>
      <trkpt lat="44.37993" lon="6.18178">
        <ele>1284.939453</ele>
        <time>2011-08-04T10:16:46Z</time>
      </trkpt>
      <trkpt lat="44.37994" lon="6.18178">
        <ele>1284.939453</ele>
        <time>2011-08-04T10:16:47Z</time>
      </trkpt>
      <trkpt lat="44.38003" lon="6.1818">
        <ele>1281.574707</ele>
        <time>2011-08-04T10:16:59Z</time>
      </trkpt>
      <trkpt lat="44.38014" lon="6.18183">
        <ele>1278.210205</ele>
        <time>2011-08-04T10:17:09Z</time>
      </trkpt>
      <trkpt lat="44.38016" lon="6.18183">
        <ele>1278.210205</ele>
        <time>2011-08-04T10:17:10Z</time>
      </trkpt>
      <trkpt lat="44.38026" lon="6.18184">
        <ele>1275.325928</ele>
        <time>2011-08-04T10:17:17Z</time>
      </trkpt>
      <trkpt lat="44.38038" lon="6.18183">
        <ele>1271.961426</ele>
        <time>2011-08-04T10:17:23Z</time>
      </trkpt>
      <trkpt lat="44.3805" lon="6.18182">
        <ele>1269.55835</ele>
        <time>2011-08-04T10:17:29Z</time>
      </trkpt>
      <trkpt lat="44.38053" lon="6.1818">
        <ele>1268.596924</ele>
        <time>2011-08-04T10:17:31Z</time>
      </trkpt>
      <trkpt lat="44.38055" lon="6.1818">
        <ele>1268.596924</ele>
        <time>2011-08-04T10:17:32Z</time>
      </trkpt>
      <trkpt lat="44.3807" lon="6.18173">
        <ele>1264.751709</ele>
        <time>2011-08-04T10:17:41Z</time>
      </trkpt>
      <trkpt lat="44.3808" lon="6.18163">
        <ele>1261.86792</ele>
        <time>2011-08-04T10:17:47Z</time>
      </trkpt>
      <trkpt lat="44.38092" lon="6.18152">
        <ele>1258.022461</ele>
        <time>2011-08-04T10:17:53Z</time>
      </trkpt>
      <trkpt lat="44.38094" lon="6.18151">
        <ele>1258.022461</ele>
        <time>2011-08-04T10:17:54Z</time>
      </trkpt>
      <trkpt lat="44.38099" lon="6.18147">
        <ele>1257.061035</ele>
        <time>2011-08-04T10:17:57Z</time>
      </trkpt>
      <trkpt lat="44.38102" lon="6.18143">
        <ele>1255.138428</ele>
        <time>2011-08-04T10:18:01Z</time>
      </trkpt>
      <trkpt lat="44.38111" lon="6.18127">
        <ele>1253.21582</ele>
        <time>2011-08-04T10:18:15Z</time>
      </trkpt>
      <trkpt lat="44.38118" lon="6.18128">
        <ele>1250.332031</ele>
        <time>2011-08-04T10:18:27Z</time>
      </trkpt>
      <trkpt lat="44.38124" lon="6.1813">
        <ele>1247.447998</ele>
        <time>2011-08-04T10:18:37Z</time>
      </trkpt>
      <trkpt lat="44.38126" lon="6.1813">
        <ele>1246.967285</ele>
        <time>2011-08-04T10:18:39Z</time>
      </trkpt>
      <trkpt lat="44.38128" lon="6.18132">
        <ele>1246.006104</ele>
        <time>2011-08-04T10:18:42Z</time>
      </trkpt>
      <trkpt lat="44.38139" lon="6.18139">
        <ele>1242.160645</ele>
        <time>2011-08-04T10:18:55Z</time>
      </trkpt>
      <trkpt lat="44.38149" lon="6.18142">
        <ele>1241.679932</ele>
        <time>2011-08-04T10:19:05Z</time>
      </trkpt>
      <trkpt lat="44.38162" lon="6.18142">
        <ele>1239.276611</ele>
        <time>2011-08-04T10:19:15Z</time>
      </trkpt>
      <trkpt lat="44.38181" lon="6.18143">
        <ele>1237.834717</ele>
        <time>2011-08-04T10:19:33Z</time>
      </trkpt>
      <trkpt lat="44.3818" lon="6.18142">
        <ele>1237.834717</ele>
        <time>2011-08-04T10:19:46Z</time>
      </trkpt>
      <trkpt lat="44.3818" lon="6.1814">
        <ele>1236.873291</ele>
        <time>2011-08-04T10:20:02Z</time>
      </trkpt>
      <trkpt lat="44.38182" lon="6.18138">
        <ele>1237.354004</ele>
        <time>2011-08-04T10:20:31Z</time>
      </trkpt>
      <trkpt lat="44.38182" lon="6.18141">
        <ele>1236.873291</ele>
        <time>2011-08-04T10:20:48Z</time>
      </trkpt>
      <trkpt lat="44.38183" lon="6.18141">
        <ele>1236.392822</ele>
        <time>2011-08-04T10:21:03Z</time>
      </trkpt>
      <trkpt lat="44.38184" lon="6.1814">
        <ele>1236.873291</ele>
        <time>2011-08-04T10:21:26Z</time>
      </trkpt>
      <trkpt lat="44.38194" lon="6.18136">
        <ele>1235.431396</ele>
        <time>2011-08-04T10:21:41Z</time>
      </trkpt>
      <trkpt lat="44.38205" lon="6.18133">
        <ele>1233.989502</ele>
        <time>2011-08-04T10:21:54Z</time>
      </trkpt>
      <trkpt lat="44.38212" lon="6.18128">
        <ele>1233.028076</ele>
        <time>2011-08-04T10:22:09Z</time>
      </trkpt>
      <trkpt lat="44.38217" lon="6.18129">
        <ele>1232.066895</ele>
        <time>2011-08-04T10:22:15Z</time>
      </trkpt>
      <trkpt lat="44.38234" lon="6.18131">
        <ele>1230.144287</ele>
        <time>2011-08-04T10:22:29Z</time>
      </trkpt>
      <trkpt lat="44.38239" lon="6.18134">
        <ele>1229.182861</ele>
        <time>2011-08-04T10:22:44Z</time>
      </trkpt>
      <trkpt lat="44.38239" lon="6.18134">
        <ele>1230.144287</ele>
        <time>2011-08-04T10:23:06Z</time>
      </trkpt>
      <trkpt lat="44.38238" lon="6.18133">
        <ele>1228.22168</ele>
        <time>2011-08-04T10:23:58Z</time>
      </trkpt>
      <trkpt lat="44.38239" lon="6.18133">
        <ele>1228.22168</ele>
        <time>2011-08-04T10:33:34Z</time>
      </trkpt>
      <trkpt lat="44.38242" lon="6.18132">
        <ele>1227.740723</ele>
        <time>2011-08-04T10:35:00Z</time>
      </trkpt>
      <trkpt lat="44.38255" lon="6.18126">
        <ele>1225.337402</ele>
        <time>2011-08-04T10:35:08Z</time>
      </trkpt>
      <trkpt lat="44.38261" lon="6.18121">
        <ele>1224.376221</ele>
        <time>2011-08-04T10:35:11Z</time>
      </trkpt>
      <trkpt lat="44.38277" lon="6.18119">
        <ele>1221.492188</ele>
        <time>2011-08-04T10:35:22Z</time>
      </trkpt>
      <trkpt lat="44.38279" lon="6.1812">
        <ele>1221.492188</ele>
        <time>2011-08-04T10:35:23Z</time>
      </trkpt>
      <trkpt lat="44.38285" lon="6.18122">
        <ele>1219.569824</ele>
        <time>2011-08-04T10:35:37Z</time>
      </trkpt>
      <trkpt lat="44.38276" lon="6.1812">
        <ele>1221.011719</ele>
        <time>2011-08-04T10:35:54Z</time>
      </trkpt>
      <trkpt lat="44.38281" lon="6.18122">
        <ele>1220.050293</ele>
        <time>2011-08-04T10:36:01Z</time>
      </trkpt>
      <trkpt lat="44.38286" lon="6.18117">
        <ele>1220.050293</ele>
        <time>2011-08-04T10:36:08Z</time>
      </trkpt>
      <trkpt lat="44.38313" lon="6.18109">
        <ele>1218.127686</ele>
        <time>2011-08-04T10:36:19Z</time>
      </trkpt>
      <trkpt lat="44.38335" lon="6.18104">
        <ele>1214.282471</ele>
        <time>2011-08-04T10:36:29Z</time>
      </trkpt>
      <trkpt lat="44.38345" lon="6.18103">
        <ele>1212.840576</ele>
        <time>2011-08-04T10:36:34Z</time>
      </trkpt>
      <trkpt lat="44.38351" lon="6.18105">
        <ele>1210.437012</ele>
        <time>2011-08-04T10:36:37Z</time>
      </trkpt>
      <trkpt lat="44.38354" lon="6.1811">
        <ele>1209.47583</ele>
        <time>2011-08-04T10:36:39Z</time>
      </trkpt>
      <trkpt lat="44.38358" lon="6.18119">
        <ele>1208.033936</ele>
        <time>2011-08-04T10:36:43Z</time>
      </trkpt>
      <trkpt lat="44.38376" lon="6.18139">
        <ele>1206.591797</ele>
        <time>2011-08-04T10:36:57Z</time>
      </trkpt>
      <trkpt lat="44.38385" lon="6.18153">
        <ele>1203.227295</ele>
        <time>2011-08-04T10:37:04Z</time>
      </trkpt>
      <trkpt lat="44.38387" lon="6.18155">
        <ele>1203.227295</ele>
        <time>2011-08-04T10:37:05Z</time>
      </trkpt>
      <trkpt lat="44.38407" lon="6.1816">
        <ele>1200.823975</ele>
        <time>2011-08-04T10:37:17Z</time>
      </trkpt>
      <trkpt lat="44.38408" lon="6.18158">
        <ele>1200.823975</ele>
        <time>2011-08-04T10:37:24Z</time>
      </trkpt>
      <trkpt lat="44.3842" lon="6.18149">
        <ele>1197.459473</ele>
        <time>2011-08-04T10:37:34Z</time>
      </trkpt>
      <trkpt lat="44.38427" lon="6.18147">
        <ele>1195.055908</ele>
        <time>2011-08-04T10:37:42Z</time>
      </trkpt>
      <trkpt lat="44.38427" lon="6.18148">
        <ele>1195.536621</ele>
        <time>2011-08-04T10:37:45Z</time>
      </trkpt>
      <trkpt lat="44.38432" lon="6.18149">
        <ele>1194.094727</ele>
        <time>2011-08-04T10:37:58Z</time>
      </trkpt>
      <trkpt lat="44.38433" lon="6.18148">
        <ele>1193.614014</ele>
        <time>2011-08-04T10:38:01Z</time>
      </trkpt>
      <trkpt lat="44.38438" lon="6.1815">
        <ele>1192.652832</ele>
        <time>2011-08-04T10:38:05Z</time>
      </trkpt>
      <trkpt lat="44.38449" lon="6.18179">
        <ele>1189.288086</ele>
        <time>2011-08-04T10:38:17Z</time>
      </trkpt>
      <trkpt lat="44.38449" lon="6.18187">
        <ele>1188.326904</ele>
        <time>2011-08-04T10:38:19Z</time>
      </trkpt>
      <trkpt lat="44.38462" lon="6.18195">
        <ele>1185.923584</ele>
        <time>2011-08-04T10:38:26Z</time>
      </trkpt>
      <trkpt lat="44.38477" lon="6.18191">
        <ele>1183.520264</ele>
        <time>2011-08-04T10:38:37Z</time>
      </trkpt>
      <trkpt lat="44.38485" lon="6.18191">
        <ele>1180.636475</ele>
        <time>2011-08-04T10:38:42Z</time>
      </trkpt>
      <trkpt lat="44.38494" lon="6.18193">
        <ele>1178.713623</ele>
        <time>2011-08-04T10:38:49Z</time>
      </trkpt>
      <trkpt lat="44.38499" lon="6.18196">
        <ele>1177.752197</ele>
        <time>2011-08-04T10:39:02Z</time>
      </trkpt>
      <trkpt lat="44.38509" lon="6.18202">
        <ele>1174.868408</ele>
        <time>2011-08-04T10:39:15Z</time>
      </trkpt>
      <trkpt lat="44.3852" lon="6.18201">
        <ele>1171.984375</ele>
        <time>2011-08-04T10:39:28Z</time>
      </trkpt>
      <trkpt lat="44.38529" lon="6.18198">
        <ele>1170.54248</ele>
        <time>2011-08-04T10:39:40Z</time>
      </trkpt>
      <trkpt lat="44.38544" lon="6.18199">
        <ele>1167.658447</ele>
        <time>2011-08-04T10:39:47Z</time>
      </trkpt>
      <trkpt lat="44.38564" lon="6.18188">
        <ele>1164.293945</ele>
        <time>2011-08-04T10:39:59Z</time>
      </trkpt>
      <trkpt lat="44.38566" lon="6.18188">
        <ele>1163.33252</ele>
        <time>2011-08-04T10:40:00Z</time>
      </trkpt>
      <trkpt lat="44.38575" lon="6.18183">
        <ele>1160.929199</ele>
        <time>2011-08-04T10:40:13Z</time>
      </trkpt>
      <trkpt lat="44.38579" lon="6.18182">
        <ele>1160.929199</ele>
        <time>2011-08-04T10:40:17Z</time>
      </trkpt>
      <trkpt lat="44.38587" lon="6.18176">
        <ele>1161.890625</ele>
        <time>2011-08-04T10:40:25Z</time>
      </trkpt>
      <trkpt lat="44.38592" lon="6.18162">
        <ele>1161.890625</ele>
        <time>2011-08-04T10:40:41Z</time>
      </trkpt>
      <trkpt lat="44.38601" lon="6.18149">
        <ele>1160.929199</ele>
        <time>2011-08-04T10:40:51Z</time>
      </trkpt>
      <trkpt lat="44.38617" lon="6.18134">
        <ele>1159.487305</ele>
        <time>2011-08-04T10:41:00Z</time>
      </trkpt>
      <trkpt lat="44.3862" lon="6.18115">
        <ele>1159.006592</ele>
        <time>2011-08-04T10:41:09Z</time>
      </trkpt>
      <trkpt lat="44.3862" lon="6.18107">
        <ele>1158.04541</ele>
        <time>2011-08-04T10:41:13Z</time>
      </trkpt>
      <trkpt lat="44.38622" lon="6.18103">
        <ele>1157.564697</ele>
        <time>2011-08-04T10:41:15Z</time>
      </trkpt>
      <trkpt lat="44.38628" lon="6.18099">
        <ele>1157.083984</ele>
        <time>2011-08-04T10:41:26Z</time>
      </trkpt>
      <trkpt lat="44.3863" lon="6.18099">
        <ele>1156.603271</ele>
        <time>2011-08-04T10:41:36Z</time>
      </trkpt>
      <trkpt lat="44.38632" lon="6.18095">
        <ele>1156.122559</ele>
        <time>2011-08-04T10:41:57Z</time>
      </trkpt>
      <trkpt lat="44.38636" lon="6.1808">
        <ele>1156.122559</ele>
        <time>2011-08-04T10:42:11Z</time>
      </trkpt>
      <trkpt lat="44.38636" lon="6.18077">
        <ele>1155.64209</ele>
        <time>2011-08-04T10:42:15Z</time>
      </trkpt>
      <trkpt lat="44.38635" lon="6.18066">
        <ele>1155.161377</ele>
        <time>2011-08-04T10:42:26Z</time>
      </trkpt>
      <trkpt lat="44.38632" lon="6.18045">
        <ele>1152.758057</ele>
        <time>2011-08-04T10:42:36Z</time>
      </trkpt>
      <trkpt lat="44.38633" lon="6.18042">
        <ele>1153.23877</ele>
        <time>2011-08-04T10:42:40Z</time>
      </trkpt>
      <trkpt lat="44.38637" lon="6.18028">
        <ele>1153.719482</ele>
        <time>2011-08-04T10:42:49Z</time>
      </trkpt>
      <trkpt lat="44.38641" lon="6.18013">
        <ele>1154.680664</ele>
        <time>2011-08-04T10:42:57Z</time>
      </trkpt>
      <trkpt lat="44.38644" lon="6.18001">
        <ele>1155.64209</ele>
        <time>2011-08-04T10:43:05Z</time>
      </trkpt>
      <trkpt lat="44.38644" lon="6.17998">
        <ele>1156.122559</ele>
        <time>2011-08-04T10:43:13Z</time>
      </trkpt>
      <trkpt lat="44.38644" lon="6.17998">
        <ele>1155.64209</ele>
        <time>2011-08-04T10:43:16Z</time>
      </trkpt>
      <trkpt lat="44.38646" lon="6.17986">
        <ele>1155.64209</ele>
        <time>2011-08-04T10:43:21Z</time>
      </trkpt>
      <trkpt lat="44.38644" lon="6.17982">
        <ele>1155.64209</ele>
        <time>2011-08-04T10:43:24Z</time>
      </trkpt>
      <trkpt lat="44.3864" lon="6.17957">
        <ele>1155.161377</ele>
        <time>2011-08-04T10:43:35Z</time>
      </trkpt>
      <trkpt lat="44.38639" lon="6.17946">
        <ele>1155.161377</ele>
        <time>2011-08-04T10:43:39Z</time>
      </trkpt>
      <trkpt lat="44.38641" lon="6.17891">
        <ele>1152.277344</ele>
        <time>2011-08-04T10:43:53Z</time>
      </trkpt>
      <trkpt lat="44.38646" lon="6.17848">
        <ele>1149.393555</ele>
        <time>2011-08-04T10:44:05Z</time>
      </trkpt>
      <trkpt lat="44.38644" lon="6.17827">
        <ele>1147.470703</ele>
        <time>2011-08-04T10:44:16Z</time>
      </trkpt>
      <trkpt lat="44.38651" lon="6.17801">
        <ele>1144.58667</ele>
        <time>2011-08-04T10:44:26Z</time>
      </trkpt>
      <trkpt lat="44.38671" lon="6.17782">
        <ele>1142.183594</ele>
        <time>2011-08-04T10:44:37Z</time>
      </trkpt>
      <trkpt lat="44.38696" lon="6.17772">
        <ele>1138.819092</ele>
        <time>2011-08-04T10:44:47Z</time>
      </trkpt>
      <trkpt lat="44.38697" lon="6.17771">
        <ele>1138.819092</ele>
        <time>2011-08-04T10:44:48Z</time>
      </trkpt>
      <trkpt lat="44.38707" lon="6.17746">
        <ele>1137.376953</ele>
        <time>2011-08-04T10:44:59Z</time>
      </trkpt>
      <trkpt lat="44.38709" lon="6.1774">
        <ele>1135.935059</ele>
        <time>2011-08-04T10:45:01Z</time>
      </trkpt>
      <trkpt lat="44.38725" lon="6.17717">
        <ele>1132.089844</ele>
        <time>2011-08-04T10:45:12Z</time>
      </trkpt>
      <trkpt lat="44.38736" lon="6.17701">
        <ele>1129.205566</ele>
        <time>2011-08-04T10:45:19Z</time>
      </trkpt>
      <trkpt lat="44.38738" lon="6.17694">
        <ele>1127.763672</ele>
        <time>2011-08-04T10:45:22Z</time>
      </trkpt>
      <trkpt lat="44.38744" lon="6.17684">
        <ele>1124.39917</ele>
        <time>2011-08-04T10:45:28Z</time>
      </trkpt>
      <trkpt lat="44.38757" lon="6.17675">
        <ele>1122.476563</ele>
        <time>2011-08-04T10:45:38Z</time>
      </trkpt>
      <trkpt lat="44.38775" lon="6.17659">
        <ele>1118.631348</ele>
        <time>2011-08-04T10:45:47Z</time>
      </trkpt>
      <trkpt lat="44.3879" lon="6.17645">
        <ele>1115.266602</ele>
        <time>2011-08-04T10:45:56Z</time>
      </trkpt>
      <trkpt lat="44.38804" lon="6.17634">
        <ele>1112.382568</ele>
        <time>2011-08-04T10:46:03Z</time>
      </trkpt>
      <trkpt lat="44.38805" lon="6.17633">
        <ele>1111.9021</ele>
        <time>2011-08-04T10:46:04Z</time>
      </trkpt>
      <trkpt lat="44.3881" lon="6.1763">
        <ele>1110.940674</ele>
        <time>2011-08-04T10:46:07Z</time>
      </trkpt>
      <trkpt lat="44.38838" lon="6.17604">
        <ele>1106.614746</ele>
        <time>2011-08-04T10:46:19Z</time>
      </trkpt>
      <trkpt lat="44.38856" lon="6.17593">
        <ele>1104.21167</ele>
        <time>2011-08-04T10:46:25Z</time>
      </trkpt>
      <trkpt lat="44.38868" lon="6.17584">
        <ele>1100.846924</ele>
        <time>2011-08-04T10:46:29Z</time>
      </trkpt>
      <trkpt lat="44.3887" lon="6.17582">
        <ele>1100.846924</ele>
        <time>2011-08-04T10:46:30Z</time>
      </trkpt>
      <trkpt lat="44.38881" lon="6.1758">
        <ele>1099.404785</ele>
        <time>2011-08-04T10:46:33Z</time>
      </trkpt>
      <trkpt lat="44.38894" lon="6.17562">
        <ele>1097.001465</ele>
        <time>2011-08-04T10:46:39Z</time>
      </trkpt>
      <trkpt lat="44.38913" lon="6.17544">
        <ele>1093.636963</ele>
        <time>2011-08-04T10:46:47Z</time>
      </trkpt>
      <trkpt lat="44.3894" lon="6.1754">
        <ele>1090.272461</ele>
        <time>2011-08-04T10:46:58Z</time>
      </trkpt>
      <trkpt lat="44.38945" lon="6.1754">
        <ele>1089.791748</ele>
        <time>2011-08-04T10:47:00Z</time>
      </trkpt>
      <trkpt lat="44.38968" lon="6.17526">
        <ele>1086.907715</ele>
        <time>2011-08-04T10:47:10Z</time>
      </trkpt>
      <trkpt lat="44.38981" lon="6.17513">
        <ele>1084.023926</ele>
        <time>2011-08-04T10:47:16Z</time>
      </trkpt>
      <trkpt lat="44.38992" lon="6.17504">
        <ele>1081.139893</ele>
        <time>2011-08-04T10:47:23Z</time>
      </trkpt>
      <trkpt lat="44.39007" lon="6.17501">
        <ele>1078.255859</ele>
        <time>2011-08-04T10:47:30Z</time>
      </trkpt>
      <trkpt lat="44.39026" lon="6.17497">
        <ele>1075.371826</ele>
        <time>2011-08-04T10:47:37Z</time>
      </trkpt>
      <trkpt lat="44.39042" lon="6.17493">
        <ele>1072.007324</ele>
        <time>2011-08-04T10:47:43Z</time>
      </trkpt>
      <trkpt lat="44.39045" lon="6.17493">
        <ele>1072.007324</ele>
        <time>2011-08-04T10:47:44Z</time>
      </trkpt>
      <trkpt lat="44.39062" lon="6.17494">
        <ele>1068.642822</ele>
        <time>2011-08-04T10:47:50Z</time>
      </trkpt>
      <trkpt lat="44.39065" lon="6.17494">
        <ele>1068.642822</ele>
        <time>2011-08-04T10:47:51Z</time>
      </trkpt>
      <trkpt lat="44.39089" lon="6.17493">
        <ele>1065.278076</ele>
        <time>2011-08-04T10:47:58Z</time>
      </trkpt>
      <trkpt lat="44.39095" lon="6.17491">
        <ele>1064.31665</ele>
        <time>2011-08-04T10:48:00Z</time>
      </trkpt>
      <trkpt lat="44.39124" lon="6.17478">
        <ele>1060.471436</ele>
        <time>2011-08-04T10:48:10Z</time>
      </trkpt>
      <trkpt lat="44.39154" lon="6.17482">
        <ele>1057.587646</ele>
        <time>2011-08-04T10:48:20Z</time>
      </trkpt>
      <trkpt lat="44.39157" lon="6.17482">
        <ele>1057.587646</ele>
        <time>2011-08-04T10:48:21Z</time>
      </trkpt>
      <trkpt lat="44.39183" lon="6.17479">
        <ele>1054.703613</ele>
        <time>2011-08-04T10:48:29Z</time>
      </trkpt>
      <trkpt lat="44.39194" lon="6.17483">
        <ele>1053.742432</ele>
        <time>2011-08-04T10:48:33Z</time>
      </trkpt>
      <trkpt lat="44.39227" lon="6.17468">
        <ele>1049.896973</ele>
        <time>2011-08-04T10:48:43Z</time>
      </trkpt>
      <trkpt lat="44.39231" lon="6.17466">
        <ele>1049.896973</ele>
        <time>2011-08-04T10:48:44Z</time>
      </trkpt>
      <trkpt lat="44.3927" lon="6.17437">
        <ele>1047.493652</ele>
        <time>2011-08-04T10:48:57Z</time>
      </trkpt>
      <trkpt lat="44.39302" lon="6.17419">
        <ele>1044.609619</ele>
        <time>2011-08-04T10:49:08Z</time>
      </trkpt>
      <trkpt lat="44.39313" lon="6.1741">
        <ele>1042.687256</ele>
        <time>2011-08-04T10:49:12Z</time>
      </trkpt>
      <trkpt lat="44.39341" lon="6.17394">
        <ele>1039.803223</ele>
        <time>2011-08-04T10:49:20Z</time>
      </trkpt>
      <trkpt lat="44.39354" lon="6.17387">
        <ele>1038.842041</ele>
        <time>2011-08-04T10:49:24Z</time>
      </trkpt>
      <trkpt lat="44.39363" lon="6.17392">
        <ele>1037.880615</ele>
        <time>2011-08-04T10:49:30Z</time>
      </trkpt>
      <trkpt lat="44.39367" lon="6.17416">
        <ele>1035.477051</ele>
        <time>2011-08-04T10:49:35Z</time>
      </trkpt>
      <trkpt lat="44.39369" lon="6.17424">
        <ele>1034.996582</ele>
        <time>2011-08-04T10:49:37Z</time>
      </trkpt>
      <trkpt lat="44.39371" lon="6.17434">
        <ele>1032.593262</ele>
        <time>2011-08-04T10:49:42Z</time>
      </trkpt>
      <trkpt lat="44.39362" lon="6.17457">
        <ele>1032.112549</ele>
        <time>2011-08-04T10:50:06Z</time>
      </trkpt>
      <trkpt lat="44.39357" lon="6.17487">
        <ele>1030.670654</ele>
        <time>2011-08-04T10:50:11Z</time>
      </trkpt>
      <trkpt lat="44.39365" lon="6.17509">
        <ele>1029.228516</ele>
        <time>2011-08-04T10:50:18Z</time>
      </trkpt>
      <trkpt lat="44.39371" lon="6.17502">
        <ele>1029.228516</ele>
        <time>2011-08-04T10:50:21Z</time>
      </trkpt>
      <trkpt lat="44.39382" lon="6.17485">
        <ele>1028.748047</ele>
        <time>2011-08-04T10:50:25Z</time>
      </trkpt>
      <trkpt lat="44.39398" lon="6.17462">
        <ele>1028.267334</ele>
        <time>2011-08-04T10:50:30Z</time>
      </trkpt>
      <trkpt lat="44.39414" lon="6.17444">
        <ele>1027.306152</ele>
        <time>2011-08-04T10:50:34Z</time>
      </trkpt>
      <trkpt lat="44.39425" lon="6.17439">
        <ele>1027.306152</ele>
        <time>2011-08-04T10:50:36Z</time>
      </trkpt>
      <trkpt lat="44.39508" lon="6.17381">
        <ele>1024.422119</ele>
        <time>2011-08-04T10:50:52Z</time>
      </trkpt>
      <trkpt lat="44.39512" lon="6.17375">
        <ele>1024.422119</ele>
        <time>2011-08-04T10:50:53Z</time>
      </trkpt>
      <trkpt lat="44.3953" lon="6.17349">
        <ele>1023.460938</ele>
        <time>2011-08-04T10:50:58Z</time>
      </trkpt>
      <trkpt lat="44.39547" lon="6.17351">
        <ele>1022.018799</ele>
        <time>2011-08-04T10:51:00Z</time>
      </trkpt>
      <trkpt lat="44.39554" lon="6.17346">
        <ele>1020.576904</ele>
        <time>2011-08-04T10:51:02Z</time>
      </trkpt>
      <trkpt lat="44.39567" lon="6.17335">
        <ele>1019.134766</ele>
        <time>2011-08-04T10:51:05Z</time>
      </trkpt>
      <trkpt lat="44.39572" lon="6.17332">
        <ele>1018.17334</ele>
        <time>2011-08-04T10:51:06Z</time>
      </trkpt>
      <trkpt lat="44.39593" lon="6.1732">
        <ele>1015.770264</ele>
        <time>2011-08-04T10:51:10Z</time>
      </trkpt>
      <trkpt lat="44.39597" lon="6.1732">
        <ele>1014.808838</ele>
        <time>2011-08-04T10:51:11Z</time>
      </trkpt>
      <trkpt lat="44.39613" lon="6.17335">
        <ele>1013.847412</ele>
        <time>2011-08-04T10:51:15Z</time>
      </trkpt>
      <trkpt lat="44.39619" lon="6.17345">
        <ele>1012.88623</ele>
        <time>2011-08-04T10:51:17Z</time>
      </trkpt>
      <trkpt lat="44.39622" lon="6.1735">
        <ele>1012.405518</ele>
        <time>2011-08-04T10:51:18Z</time>
      </trkpt>
      <trkpt lat="44.39662" lon="6.17349">
        <ele>1010.963623</ele>
        <time>2011-08-04T10:51:27Z</time>
      </trkpt>
      <trkpt lat="44.39664" lon="6.17344">
        <ele>1010.963623</ele>
        <time>2011-08-04T10:51:28Z</time>
      </trkpt>
      <trkpt lat="44.39701" lon="6.17294">
        <ele>1012.405518</ele>
        <time>2011-08-04T10:51:44Z</time>
      </trkpt>
      <trkpt lat="44.39725" lon="6.17271">
        <ele>1014.328125</ele>
        <time>2011-08-04T10:51:59Z</time>
      </trkpt>
      <trkpt lat="44.39745" lon="6.1723">
        <ele>1017.212158</ele>
        <time>2011-08-04T10:52:18Z</time>
      </trkpt>
      <trkpt lat="44.39757" lon="6.17199">
        <ele>1018.654053</ele>
        <time>2011-08-04T10:52:31Z</time>
      </trkpt>
      <trkpt lat="44.39772" lon="6.17159">
        <ele>1020.576904</ele>
        <time>2011-08-04T10:52:48Z</time>
      </trkpt>
      <trkpt lat="44.39787" lon="6.17125">
        <ele>1022.499512</ele>
        <time>2011-08-04T10:53:04Z</time>
      </trkpt>
      <trkpt lat="44.39793" lon="6.17123">
        <ele>1022.980225</ele>
        <time>2011-08-04T10:53:15Z</time>
      </trkpt>
      <trkpt lat="44.39796" lon="6.17124">
        <ele>1022.980225</ele>
        <time>2011-08-04T10:53:34Z</time>
      </trkpt>
      <trkpt lat="44.39805" lon="6.17129">
        <ele>1023.941406</ele>
        <time>2011-08-04T10:53:51Z</time>
      </trkpt>
      <trkpt lat="44.39805" lon="6.17127">
        <ele>1024.422119</ele>
        <time>2011-08-04T10:54:06Z</time>
      </trkpt>
      <trkpt lat="44.39806" lon="6.17127">
        <ele>1024.902832</ele>
        <time>2011-08-04T10:54:17Z</time>
      </trkpt>
    </trkseg>
  </trk>
</gpx>